<?xml version='1.0' encoding='UTF-8'?><gpx version="1.1" creator="JPX - https://github.com/jenetics/jpx" xmlns="http://www.topografix.com/GPX/1/1"><trk><trkseg><trkpt lat="45.6325237" lon="11.4198984"><ele>90.0</ele><time>2026-04-17T15:48:19.028Z</time></trkpt><trkpt lat="45.6325011" lon="11.4197406"><ele>90.0</ele><time>2026-04-17T15:48:21.028Z</time></trkpt><trkpt lat="45.6325315" lon="11.4195427"><ele>90.0</ele><time>2026-04-17T15:48:23.029Z</time></trkpt><trkpt lat="45.6325462" lon="11.4194504"><ele>90.0</ele><time>2026-04-17T15:48:24.028Z</time></trkpt><trkpt lat="45.632558" lon="11.4192889"><ele>90.0</ele><time>2026-04-17T15:48:26.028Z</time></trkpt><trkpt lat="45.632577" lon="11.4191966"><ele>89.8</ele><time>2026-04-17T15:48:27.028Z</time></trkpt><trkpt lat="45.6325645" lon="11.4190527"><ele>89.6</ele><time>2026-04-17T15:48:29.028Z</time></trkpt><trkpt lat="45.6325486" lon="11.4189271"><ele>89.4</ele><time>2026-04-17T15:48:31.029Z</time></trkpt><trkpt lat="45.6325365" lon="11.418795"><ele>89.2</ele><time>2026-04-17T15:48:33.029Z</time></trkpt><trkpt lat="45.6324987" lon="11.4186631"><ele>89.0</ele><time>2026-04-17T15:48:35.029Z</time></trkpt><trkpt lat="45.6324883" lon="11.4185176"><ele>90.2</ele><time>2026-04-17T15:48:38.029Z</time></trkpt><trkpt lat="45.6324576" lon="11.4184019"><ele>91.4</ele><time>2026-04-17T15:48:40.029Z</time></trkpt><trkpt lat="45.6324267" lon="11.4182775"><ele>92.6</ele><time>2026-04-17T15:48:42.029Z</time></trkpt><trkpt lat="45.6324012" lon="11.4181794"><ele>93.8</ele><time>2026-04-17T15:48:44.029Z</time></trkpt><trkpt lat="45.6323615" lon="11.4180454"><ele>95.0</ele><time>2026-04-17T15:48:46.028Z</time></trkpt><trkpt lat="45.6322965" lon="11.4179323"><ele>96.75</ele><time>2026-04-17T15:48:48.028Z</time></trkpt><trkpt lat="45.6322028" lon="11.4178261"><ele>98.5</ele><time>2026-04-17T15:48:50.028Z</time></trkpt><trkpt lat="45.6321013" lon="11.4177161"><ele>100.25</ele><time>2026-04-17T15:48:52.029Z</time></trkpt><trkpt lat="45.6320111" lon="11.4176206"><ele>102.0</ele><time>2026-04-17T15:48:54.028Z</time></trkpt><trkpt lat="45.6319404" lon="11.4175229"><ele>99.6</ele><time>2026-04-17T15:48:56.028Z</time></trkpt><trkpt lat="45.6318652" lon="11.4174119"><ele>97.19999999999999</ele><time>2026-04-17T15:48:58.028Z</time></trkpt><trkpt lat="45.6317988" lon="11.4173133"><ele>94.8</ele><time>2026-04-17T15:49:00.028Z</time></trkpt><trkpt lat="45.6317354" lon="11.4172075"><ele>92.4</ele><time>2026-04-17T15:49:02.028Z</time></trkpt><trkpt lat="45.631671" lon="11.4171085"><ele>90.0</ele><time>2026-04-17T15:49:04.028Z</time></trkpt><trkpt lat="45.6316206" lon="11.4170324"><ele>90.0</ele><time>2026-04-17T15:49:06.028Z</time></trkpt><trkpt lat="45.6315671" lon="11.4169527"><ele>90.0</ele><time>2026-04-17T15:49:08.028Z</time></trkpt><trkpt lat="45.6315049" lon="11.4168767"><ele>90.0</ele><time>2026-04-17T15:49:10.029Z</time></trkpt><trkpt lat="45.6314375" lon="11.4167975"><ele>90.0</ele><time>2026-04-17T15:49:12.028Z</time></trkpt><trkpt lat="45.6313692" lon="11.4167148"><ele>90.0</ele><time>2026-04-17T15:49:14.029Z</time></trkpt><trkpt lat="45.6313006" lon="11.4166436"><ele>90.0</ele><time>2026-04-17T15:49:16.028Z</time></trkpt><trkpt lat="45.6312269" lon="11.4165799"><ele>90.2</ele><time>2026-04-17T15:49:18.028Z</time></trkpt><trkpt lat="45.6311164" lon="11.416518"><ele>90.4</ele><time>2026-04-17T15:49:20.029Z</time></trkpt><trkpt lat="45.6310519" lon="11.4164843"><ele>90.6</ele><time>2026-04-17T15:49:21.029Z</time></trkpt><trkpt lat="45.6309905" lon="11.4164542"><ele>90.8</ele><time>2026-04-17T15:49:22.028Z</time></trkpt><trkpt lat="45.630877" lon="11.4164005"><ele>91.0</ele><time>2026-04-17T15:49:24.028Z</time></trkpt><trkpt lat="45.6307726" lon="11.4163125"><ele>91.0</ele><time>2026-04-17T15:49:26.029Z</time></trkpt><trkpt lat="45.6306823" lon="11.4161789"><ele>91.0</ele><time>2026-04-17T15:49:28.029Z</time></trkpt><trkpt lat="45.6306381" lon="11.4161013"><ele>91.0</ele><time>2026-04-17T15:49:29.028Z</time></trkpt><trkpt lat="45.6305931" lon="11.4160262"><ele>91.0</ele><time>2026-04-17T15:49:30.029Z</time></trkpt><trkpt lat="45.6305465" lon="11.4159531"><ele>91.0</ele><time>2026-04-17T15:49:31.029Z</time></trkpt><trkpt lat="45.6305032" lon="11.415884"><ele>91.0</ele><time>2026-04-17T15:49:32.028Z</time></trkpt><trkpt lat="45.6303902" lon="11.4157558"><ele>90.6</ele><time>2026-04-17T15:49:33.029Z</time></trkpt><trkpt lat="45.6303065" lon="11.4156266"><ele>90.19999999999999</ele><time>2026-04-17T15:49:34.028Z</time></trkpt><trkpt lat="45.6302284" lon="11.4154757"><ele>89.80000000000001</ele><time>2026-04-17T15:49:36.028Z</time></trkpt><trkpt lat="45.6301761" lon="11.4153909"><ele>89.4</ele><time>2026-04-17T15:49:37.028Z</time></trkpt><trkpt lat="45.6301382" lon="11.4152367"><ele>89.0</ele><time>2026-04-17T15:49:39.028Z</time></trkpt><trkpt lat="45.6301145" lon="11.4150868"><ele>88.99999999999999</ele><time>2026-04-17T15:49:41.029Z</time></trkpt><trkpt lat="45.6300952" lon="11.4149954"><ele>89.0</ele><time>2026-04-17T15:49:42.029Z</time></trkpt><trkpt lat="45.6300523" lon="11.4148641"><ele>89.0</ele><time>2026-04-17T15:49:44.028Z</time></trkpt><trkpt lat="45.6300122" lon="11.4147927"><ele>89.0</ele><time>2026-04-17T15:49:45.028Z</time></trkpt><trkpt lat="45.6299632" lon="11.4147294"><ele>89.0</ele><time>2026-04-17T15:49:46.027Z</time></trkpt><trkpt lat="45.6299061" lon="11.4146565"><ele>88.99999999999999</ele><time>2026-04-17T15:49:47.028Z</time></trkpt><trkpt lat="45.6298567" lon="11.4146001"><ele>89.0</ele><time>2026-04-17T15:49:48.029Z</time></trkpt><trkpt lat="45.6298237" lon="11.4145073"><ele>89.83333333333334</ele><time>2026-04-17T15:49:49.029Z</time></trkpt><trkpt lat="45.6297706" lon="11.4144186"><ele>90.66666666666667</ele><time>2026-04-17T15:49:50.029Z</time></trkpt><trkpt lat="45.6297209" lon="11.4143281"><ele>91.5</ele><time>2026-04-17T15:49:51.028Z</time></trkpt><trkpt lat="45.629682" lon="11.4142558"><ele>92.33333333333333</ele><time>2026-04-17T15:49:52.029Z</time></trkpt><trkpt lat="45.6296398" lon="11.4141786"><ele>93.16666666666666</ele><time>2026-04-17T15:49:53.028Z</time></trkpt><trkpt lat="45.6296066" lon="11.4141011"><ele>94.0</ele><time>2026-04-17T15:49:54.029Z</time></trkpt><trkpt lat="45.6295381" lon="11.4140067"><ele>93.0</ele><time>2026-04-17T15:49:55.029Z</time></trkpt><trkpt lat="45.6294753" lon="11.4139226"><ele>92.0</ele><time>2026-04-17T15:49:56.028Z</time></trkpt><trkpt lat="45.6294192" lon="11.413841"><ele>91.0</ele><time>2026-04-17T15:49:57.029Z</time></trkpt><trkpt lat="45.6293801" lon="11.41377"><ele>90.0</ele><time>2026-04-17T15:49:58.028Z</time></trkpt><trkpt lat="45.6293351" lon="11.4136972"><ele>89.0</ele><time>2026-04-17T15:49:59.029Z</time></trkpt><trkpt lat="45.6292951" lon="11.4136251"><ele>88.0</ele><time>2026-04-17T15:50:00.029Z</time></trkpt><trkpt lat="45.6292383" lon="11.413544"><ele>87.0</ele><time>2026-04-17T15:50:01.028Z</time></trkpt><trkpt lat="45.629167" lon="11.4134605"><ele>87.0</ele><time>2026-04-17T15:50:02.027Z</time></trkpt><trkpt lat="45.6291202" lon="11.4133889"><ele>87.0</ele><time>2026-04-17T15:50:03.029Z</time></trkpt><trkpt lat="45.6291268" lon="11.4132364"><ele>87.0</ele><time>2026-04-17T15:50:05.028Z</time></trkpt><trkpt lat="45.6290597" lon="11.4131729"><ele>87.0</ele><time>2026-04-17T15:50:06.029Z</time></trkpt><trkpt lat="45.6290058" lon="11.4130687"><ele>87.0</ele><time>2026-04-17T15:50:07.029Z</time></trkpt><trkpt lat="45.6289427" lon="11.4129126"><ele>87.5</ele><time>2026-04-17T15:50:09.028Z</time></trkpt><trkpt lat="45.6288897" lon="11.4128335"><ele>88.0</ele><time>2026-04-17T15:50:10.028Z</time></trkpt><trkpt lat="45.6288429" lon="11.4127567"><ele>88.5</ele><time>2026-04-17T15:50:11.029Z</time></trkpt><trkpt lat="45.6287819" lon="11.412681"><ele>89.0</ele><time>2026-04-17T15:50:12.028Z</time></trkpt><trkpt lat="45.6287259" lon="11.4125917"><ele>89.5</ele><time>2026-04-17T15:50:13.029Z</time></trkpt><trkpt lat="45.6286736" lon="11.4124317"><ele>90.0</ele><time>2026-04-17T15:50:15.029Z</time></trkpt><trkpt lat="45.6286376" lon="11.41234"><ele>89.0</ele><time>2026-04-17T15:50:16.029Z</time></trkpt><trkpt lat="45.6285814" lon="11.4121945"><ele>88.0</ele><time>2026-04-17T15:50:18.028Z</time></trkpt><trkpt lat="45.6285513" lon="11.4120466"><ele>87.0</ele><time>2026-04-17T15:50:20.028Z</time></trkpt><trkpt lat="45.6285275" lon="11.4119157"><ele>86.0</ele><time>2026-04-17T15:50:22.028Z</time></trkpt><trkpt lat="45.6285015" lon="11.4118254"><ele>85.0</ele><time>2026-04-17T15:50:23.029Z</time></trkpt><trkpt lat="45.6284433" lon="11.4116692"><ele>85.0</ele><time>2026-04-17T15:50:25.028Z</time></trkpt><trkpt lat="45.6284144" lon="11.4115889"><ele>85.0</ele><time>2026-04-17T15:50:26.029Z</time></trkpt><trkpt lat="45.6283688" lon="11.4114178"><ele>85.0</ele><time>2026-04-17T15:50:28.029Z</time></trkpt><trkpt lat="45.6283518" lon="11.4113184"><ele>85.0</ele><time>2026-04-17T15:50:29.028Z</time></trkpt><trkpt lat="45.6283434" lon="11.4112224"><ele>85.0</ele><time>2026-04-17T15:50:30.029Z</time></trkpt><trkpt lat="45.6283037" lon="11.4110636"><ele>85.0</ele><time>2026-04-17T15:50:32.028Z</time></trkpt><trkpt lat="45.6282607" lon="11.4109747"><ele>85.16666666666666</ele><time>2026-04-17T15:50:33.028Z</time></trkpt><trkpt lat="45.6282237" lon="11.4108254"><ele>85.33333333333333</ele><time>2026-04-17T15:50:35.029Z</time></trkpt><trkpt lat="45.6282109" lon="11.4106782"><ele>85.5</ele><time>2026-04-17T15:50:37.029Z</time></trkpt><trkpt lat="45.6282004" lon="11.4105886"><ele>85.66666666666667</ele><time>2026-04-17T15:50:38.029Z</time></trkpt><trkpt lat="45.6281608" lon="11.410511"><ele>85.83333333333334</ele><time>2026-04-17T15:50:39.029Z</time></trkpt><trkpt lat="45.6281094" lon="11.4104099"><ele>86.0</ele><time>2026-04-17T15:50:40.028Z</time></trkpt><trkpt lat="45.6281092" lon="11.4102498"><ele>86.33333333333334</ele><time>2026-04-17T15:50:42.029Z</time></trkpt><trkpt lat="45.6281177" lon="11.4101078"><ele>86.66666666666667</ele><time>2026-04-17T15:50:44.029Z</time></trkpt><trkpt lat="45.6281347" lon="11.4100207"><ele>87.0</ele><time>2026-04-17T15:50:45.028Z</time></trkpt><trkpt lat="45.6281802" lon="11.4098775"><ele>87.33333333333333</ele><time>2026-04-17T15:50:47.029Z</time></trkpt><trkpt lat="45.6282162" lon="11.4097475"><ele>87.66666666666666</ele><time>2026-04-17T15:50:49.027Z</time></trkpt><trkpt lat="45.6282577" lon="11.4096639"><ele>88.0</ele><time>2026-04-17T15:50:50.029Z</time></trkpt><trkpt lat="45.628279" lon="11.4095083"><ele>88.2</ele><time>2026-04-17T15:50:52.029Z</time></trkpt><trkpt lat="45.6283055" lon="11.4093749"><ele>88.4</ele><time>2026-04-17T15:50:54.029Z</time></trkpt><trkpt lat="45.6283416" lon="11.4092288"><ele>88.60000000000001</ele><time>2026-04-17T15:50:56.027Z</time></trkpt><trkpt lat="45.6283609" lon="11.4090937"><ele>88.80000000000001</ele><time>2026-04-17T15:50:58.029Z</time></trkpt><trkpt lat="45.6283731" lon="11.408962"><ele>89.0</ele><time>2026-04-17T15:51:00.029Z</time></trkpt><trkpt lat="45.6283857" lon="11.4088322"><ele>89.0</ele><time>2026-04-17T15:51:02.027Z</time></trkpt><trkpt lat="45.6283804" lon="11.4086511"><ele>89.0</ele><time>2026-04-17T15:51:04.029Z</time></trkpt><trkpt lat="45.6283657" lon="11.4085531"><ele>89.0</ele><time>2026-04-17T15:51:05.029Z</time></trkpt><trkpt lat="45.6283483" lon="11.4084642"><ele>89.0</ele><time>2026-04-17T15:51:06.029Z</time></trkpt><trkpt lat="45.6283199" lon="11.4083055"><ele>89.0</ele><time>2026-04-17T15:51:08.029Z</time></trkpt><trkpt lat="45.6283099" lon="11.4081816"><ele>89.0</ele><time>2026-04-17T15:51:09.029Z</time></trkpt><trkpt lat="45.6282407" lon="11.4080006"><ele>89.0</ele><time>2026-04-17T15:51:10.028Z</time></trkpt><trkpt lat="45.6282356" lon="11.4078761"><ele>89.0</ele><time>2026-04-17T15:51:12.029Z</time></trkpt><trkpt lat="45.6282246" lon="11.4077438"><ele>89.0</ele><time>2026-04-17T15:51:14.029Z</time></trkpt><trkpt lat="45.6282229" lon="11.4076248"><ele>89.0</ele><time>2026-04-17T15:51:16.029Z</time></trkpt><trkpt lat="45.6282138" lon="11.4075199"><ele>89.16666666666667</ele><time>2026-04-17T15:51:18.029Z</time></trkpt><trkpt lat="45.6281804" lon="11.407414"><ele>89.33333333333334</ele><time>2026-04-17T15:51:20.029Z</time></trkpt><trkpt lat="45.6281702" lon="11.4073038"><ele>89.5</ele><time>2026-04-17T15:51:22.029Z</time></trkpt><trkpt lat="45.6281478" lon="11.4072005"><ele>89.66666666666667</ele><time>2026-04-17T15:51:24.029Z</time></trkpt><trkpt lat="45.6281296" lon="11.4071048"><ele>89.83333333333333</ele><time>2026-04-17T15:51:26.028Z</time></trkpt><trkpt lat="45.628107" lon="11.4070049"><ele>90.0</ele><time>2026-04-17T15:51:28.028Z</time></trkpt><trkpt lat="45.6280921" lon="11.4068967"><ele>90.33333333333333</ele><time>2026-04-17T15:51:30.029Z</time></trkpt><trkpt lat="45.628086" lon="11.4067876"><ele>90.66666666666667</ele><time>2026-04-17T15:51:32.029Z</time></trkpt><trkpt lat="45.6280784" lon="11.4066867"><ele>91.0</ele><time>2026-04-17T15:51:34.028Z</time></trkpt><trkpt lat="45.6280829" lon="11.4065757"><ele>91.33333333333334</ele><time>2026-04-17T15:51:36.028Z</time></trkpt><trkpt lat="45.6280831" lon="11.406483"><ele>91.66666666666667</ele><time>2026-04-17T15:51:38.029Z</time></trkpt><trkpt lat="45.6280456" lon="11.4063787"><ele>92.0</ele><time>2026-04-17T15:51:40.028Z</time></trkpt><trkpt lat="45.6279852" lon="11.406275"><ele>92.19999999999999</ele><time>2026-04-17T15:51:42.029Z</time></trkpt><trkpt lat="45.6279157" lon="11.4061577"><ele>92.4</ele><time>2026-04-17T15:51:44.028Z</time></trkpt><trkpt lat="45.627829" lon="11.4060222"><ele>92.6</ele><time>2026-04-17T15:51:46.029Z</time></trkpt><trkpt lat="45.6277462" lon="11.4059108"><ele>92.80000000000001</ele><time>2026-04-17T15:51:48.029Z</time></trkpt><trkpt lat="45.6276762" lon="11.4058246"><ele>93.0</ele><time>2026-04-17T15:51:50.029Z</time></trkpt><trkpt lat="45.6276152" lon="11.4057539"><ele>92.66666666666667</ele><time>2026-04-17T15:51:52.029Z</time></trkpt><trkpt lat="45.627536" lon="11.4056658"><ele>92.33333333333333</ele><time>2026-04-17T15:51:54.029Z</time></trkpt><trkpt lat="45.6274506" lon="11.4055819"><ele>92.0</ele><time>2026-04-17T15:51:56.029Z</time></trkpt><trkpt lat="45.627386" lon="11.4055077"><ele>91.66666666666666</ele><time>2026-04-17T15:51:58.028Z</time></trkpt><trkpt lat="45.6273343" lon="11.405437"><ele>91.33333333333333</ele><time>2026-04-17T15:52:00.029Z</time></trkpt><trkpt lat="45.6272722" lon="11.4053591"><ele>91.0</ele><time>2026-04-17T15:52:02.028Z</time></trkpt><trkpt lat="45.6272136" lon="11.4052948"><ele>91.0</ele><time>2026-04-17T15:52:04.029Z</time></trkpt><trkpt lat="45.627151" lon="11.4052322"><ele>91.0</ele><time>2026-04-17T15:52:07.028Z</time></trkpt><trkpt lat="45.6270934" lon="11.4051535"><ele>91.0</ele><time>2026-04-17T15:52:10.028Z</time></trkpt><trkpt lat="45.6270447" lon="11.4050863"><ele>91.0</ele><time>2026-04-17T15:52:12.029Z</time></trkpt><trkpt lat="45.6269787" lon="11.4049933"><ele>91.0</ele><time>2026-04-17T15:52:15.029Z</time></trkpt><trkpt lat="45.6269196" lon="11.4049017"><ele>91.0</ele><time>2026-04-17T15:52:18.029Z</time></trkpt><trkpt lat="45.6268567" lon="11.4048203"><ele>91.83333333333333</ele><time>2026-04-17T15:52:21.028Z</time></trkpt><trkpt lat="45.6268158" lon="11.4047355"><ele>92.66666666666666</ele><time>2026-04-17T15:52:24.027Z</time></trkpt><trkpt lat="45.6267577" lon="11.4046511"><ele>93.5</ele><time>2026-04-17T15:52:27.027Z</time></trkpt><trkpt lat="45.6266966" lon="11.4045563"><ele>94.33333333333333</ele><time>2026-04-17T15:52:30.028Z</time></trkpt><trkpt lat="45.6266353" lon="11.4044764"><ele>95.16666666666667</ele><time>2026-04-17T15:52:33.028Z</time></trkpt><trkpt lat="45.6265855" lon="11.4043993"><ele>96.0</ele><time>2026-04-17T15:52:36.029Z</time></trkpt><trkpt lat="45.6265327" lon="11.4043232"><ele>97.5</ele><time>2026-04-17T15:52:39.028Z</time></trkpt><trkpt lat="45.6264748" lon="11.4042472"><ele>99.0</ele><time>2026-04-17T15:52:42.029Z</time></trkpt><trkpt lat="45.6264471" lon="11.404143"><ele>100.5</ele><time>2026-04-17T15:52:46.029Z</time></trkpt><trkpt lat="45.6264401" lon="11.4040361"><ele>102.0</ele><time>2026-04-17T15:52:52.028Z</time></trkpt><trkpt lat="45.6264604" lon="11.4039303"><ele>103.5</ele><time>2026-04-17T15:52:57.028Z</time></trkpt><trkpt lat="45.6265007" lon="11.4038489"><ele>105.0</ele><time>2026-04-17T15:53:00.029Z</time></trkpt><trkpt lat="45.6265395" lon="11.403749"><ele>105.42857142857143</ele><time>2026-04-17T15:53:04.027Z</time></trkpt><trkpt lat="45.6265661" lon="11.4036484"><ele>105.85714285714286</ele><time>2026-04-17T15:53:08.028Z</time></trkpt><trkpt lat="45.6265908" lon="11.4035398"><ele>106.28571428571428</ele><time>2026-04-17T15:53:11.028Z</time></trkpt><trkpt lat="45.6266246" lon="11.4034322"><ele>106.71428571428572</ele><time>2026-04-17T15:53:14.029Z</time></trkpt><trkpt lat="45.6266412" lon="11.4033372"><ele>107.14285714285714</ele><time>2026-04-17T15:53:17.029Z</time></trkpt><trkpt lat="45.6266443" lon="11.4032309"><ele>107.57142857142857</ele><time>2026-04-17T15:53:21.028Z</time></trkpt><trkpt lat="45.6266643" lon="11.4031408"><ele>108.0</ele><time>2026-04-17T15:53:24.029Z</time></trkpt><trkpt lat="45.6266812" lon="11.4030334"><ele>108.57142857142857</ele><time>2026-04-17T15:53:28.029Z</time></trkpt><trkpt lat="45.6266838" lon="11.4029343"><ele>109.14285714285714</ele><time>2026-04-17T15:53:32.029Z</time></trkpt><trkpt lat="45.6266874" lon="11.4028211"><ele>109.71428571428572</ele><time>2026-04-17T15:53:36.028Z</time></trkpt><trkpt lat="45.6266875" lon="11.4027259"><ele>110.28571428571428</ele><time>2026-04-17T15:53:39.028Z</time></trkpt><trkpt lat="45.6266828" lon="11.4026336"><ele>110.85714285714286</ele><time>2026-04-17T15:53:42.029Z</time></trkpt><trkpt lat="45.6266757" lon="11.4025203"><ele>111.42857142857143</ele><time>2026-04-17T15:53:46.028Z</time></trkpt><trkpt lat="45.6266694" lon="11.4024292"><ele>112.0</ele><time>2026-04-17T15:53:50.028Z</time></trkpt><trkpt lat="45.6266552" lon="11.4023184"><ele>112.0</ele><time>2026-04-17T15:53:55.029Z</time></trkpt><trkpt lat="45.6266588" lon="11.4022055"><ele>112.0</ele><time>2026-04-17T15:54:00.029Z</time></trkpt><trkpt lat="45.6266749" lon="11.4021051"><ele>112.0</ele><time>2026-04-17T15:54:04.027Z</time></trkpt><trkpt lat="45.62669" lon="11.4020097"><ele>112.0</ele><time>2026-04-17T15:54:07.029Z</time></trkpt><trkpt lat="45.6266761" lon="11.4018998"><ele>112.0</ele><time>2026-04-17T15:54:11.028Z</time></trkpt><trkpt lat="45.6266501" lon="11.4018084"><ele>112.0</ele><time>2026-04-17T15:54:15.028Z</time></trkpt><trkpt lat="45.6265829" lon="11.4018004"><ele>112.0</ele><time>2026-04-17T15:54:20.028Z</time></trkpt><trkpt lat="45.6265368" lon="11.4018886"><ele>112.71428571428572</ele><time>2026-04-17T15:54:26.029Z</time></trkpt><trkpt lat="45.6264808" lon="11.4019354"><ele>113.42857142857143</ele><time>2026-04-17T15:54:32.028Z</time></trkpt><trkpt lat="45.6264176" lon="11.4019338"><ele>114.14285714285714</ele><time>2026-04-17T15:54:36.029Z</time></trkpt><trkpt lat="45.6263487" lon="11.4019365"><ele>114.85714285714286</ele><time>2026-04-17T15:54:41.028Z</time></trkpt><trkpt lat="45.6262786" lon="11.4019244"><ele>115.57142857142858</ele><time>2026-04-17T15:54:47.028Z</time></trkpt><trkpt lat="45.6262082" lon="11.4019429"><ele>116.28571428571429</ele><time>2026-04-17T15:54:52.028Z</time></trkpt><trkpt lat="45.6261403" lon="11.4019729"><ele>117.0</ele><time>2026-04-17T15:54:57.028Z</time></trkpt><trkpt lat="45.6260832" lon="11.4020194"><ele>119.42857142857143</ele><time>2026-04-17T15:55:02.029Z</time></trkpt><trkpt lat="45.6260293" lon="11.402076"><ele>121.85714285714286</ele><time>2026-04-17T15:55:08.029Z</time></trkpt><trkpt lat="45.6259569" lon="11.4020704"><ele>124.28571428571429</ele><time>2026-04-17T15:55:15.029Z</time></trkpt><trkpt lat="45.62589" lon="11.4020372"><ele>126.71428571428572</ele><time>2026-04-17T15:55:21.029Z</time></trkpt><trkpt lat="45.6258375" lon="11.4019836"><ele>129.14285714285714</ele><time>2026-04-17T15:55:26.028Z</time></trkpt><trkpt lat="45.6258491" lon="11.4018797"><ele>131.57142857142858</ele><time>2026-04-17T15:55:33.028Z</time></trkpt><trkpt lat="45.6258318" lon="11.401786"><ele>134.0</ele><time>2026-04-17T15:55:38.028Z</time></trkpt><trkpt lat="45.6258182" lon="11.4016788"><ele>134.0</ele><time>2026-04-17T15:55:43.029Z</time></trkpt><trkpt lat="45.6258208" lon="11.4015807"><ele>134.0</ele><time>2026-04-17T15:55:50.028Z</time></trkpt><trkpt lat="45.6258677" lon="11.4015184"><ele>134.0</ele><time>2026-04-17T15:55:59.028Z</time></trkpt><trkpt lat="45.6258947" lon="11.4014292"><ele>134.0</ele><time>2026-04-17T15:56:04.027Z</time></trkpt><trkpt lat="45.6258792" lon="11.4013353"><ele>134.0</ele><time>2026-04-17T15:56:09.029Z</time></trkpt><trkpt lat="45.6258867" lon="11.4012408"><ele>134.0</ele><time>2026-04-17T15:56:17.028Z</time></trkpt><trkpt lat="45.6258798" lon="11.4011507"><ele>134.0</ele><time>2026-04-17T15:56:22.029Z</time></trkpt><trkpt lat="45.6258366" lon="11.4010736"><ele>135.28571428571428</ele><time>2026-04-17T15:56:28.029Z</time></trkpt><trkpt lat="45.6257956" lon="11.400986"><ele>136.57142857142856</ele><time>2026-04-17T15:56:33.029Z</time></trkpt><trkpt lat="45.6257984" lon="11.4008951"><ele>137.85714285714283</ele><time>2026-04-17T15:56:37.028Z</time></trkpt><trkpt lat="45.6257928" lon="11.4007993"><ele>139.14285714285714</ele><time>2026-04-17T15:56:44.028Z</time></trkpt><trkpt lat="45.6258056" lon="11.4006999"><ele>140.42857142857142</ele><time>2026-04-17T15:56:50.029Z</time></trkpt><trkpt lat="45.6257916" lon="11.4006067"><ele>141.7142857142857</ele><time>2026-04-17T15:56:56.028Z</time></trkpt><trkpt lat="45.6257573" lon="11.4005265"><ele>143.0</ele><time>2026-04-17T15:57:03.029Z</time></trkpt><trkpt lat="45.6257164" lon="11.4004441"><ele>143.7142857142857</ele><time>2026-04-17T15:57:08.028Z</time></trkpt><trkpt lat="45.6256746" lon="11.4003653"><ele>144.42857142857142</ele><time>2026-04-17T15:57:17.027Z</time></trkpt><trkpt lat="45.6256036" lon="11.4003426"><ele>145.14285714285714</ele><time>2026-04-17T15:57:23.029Z</time></trkpt><trkpt lat="45.6255418" lon="11.4003715"><ele>145.85714285714283</ele><time>2026-04-17T15:57:29.029Z</time></trkpt><trkpt lat="45.6254782" lon="11.4003483"><ele>146.57142857142856</ele><time>2026-04-17T15:57:35.029Z</time></trkpt><trkpt lat="45.6253997" lon="11.4003554"><ele>147.28571428571428</ele><time>2026-04-17T15:57:40.028Z</time></trkpt><trkpt lat="45.6253186" lon="11.4003626"><ele>148.0</ele><time>2026-04-17T15:57:44.028Z</time></trkpt><trkpt lat="45.6252405" lon="11.4003418"><ele>149.71428571428572</ele><time>2026-04-17T15:57:48.028Z</time></trkpt><trkpt lat="45.6251781" lon="11.4003219"><ele>151.42857142857142</ele><time>2026-04-17T15:57:52.028Z</time></trkpt><trkpt lat="45.6251129" lon="11.4003229"><ele>153.14285714285714</ele><time>2026-04-17T15:57:56.029Z</time></trkpt><trkpt lat="45.6250497" lon="11.4003142"><ele>154.85714285714286</ele><time>2026-04-17T15:58:00.027Z</time></trkpt><trkpt lat="45.6249853" lon="11.4003127"><ele>156.57142857142858</ele><time>2026-04-17T15:58:04.029Z</time></trkpt><trkpt lat="45.6249065" lon="11.4003082"><ele>158.28571428571428</ele><time>2026-04-17T15:58:09.029Z</time></trkpt><trkpt lat="45.6248432" lon="11.4003129"><ele>160.0</ele><time>2026-04-17T15:58:13.028Z</time></trkpt><trkpt lat="45.6247772" lon="11.4002889"><ele>160.0</ele><time>2026-04-17T15:58:18.029Z</time></trkpt><trkpt lat="45.6247102" lon="11.4002902"><ele>160.0</ele><time>2026-04-17T15:58:23.029Z</time></trkpt><trkpt lat="45.6246396" lon="11.4003003"><ele>160.0</ele><time>2026-04-17T15:58:28.028Z</time></trkpt><trkpt lat="45.6245675" lon="11.4003453"><ele>160.0</ele><time>2026-04-17T15:58:32.029Z</time></trkpt><trkpt lat="45.6245114" lon="11.4003913"><ele>160.0</ele><time>2026-04-17T15:58:35.029Z</time></trkpt><trkpt lat="45.6244451" lon="11.4004435"><ele>160.0</ele><time>2026-04-17T15:58:39.029Z</time></trkpt><trkpt lat="45.6243787" lon="11.4004667"><ele>160.0</ele><time>2026-04-17T15:58:44.029Z</time></trkpt><trkpt lat="45.6243107" lon="11.4005145"><ele>160.14285714285714</ele><time>2026-04-17T15:58:49.029Z</time></trkpt><trkpt lat="45.6242569" lon="11.4005892"><ele>160.28571428571428</ele><time>2026-04-17T15:58:53.028Z</time></trkpt><trkpt lat="45.624181" lon="11.4006086"><ele>160.42857142857144</ele><time>2026-04-17T15:58:59.026Z</time></trkpt><trkpt lat="45.6241179" lon="11.4005958"><ele>160.57142857142856</ele><time>2026-04-17T15:59:02.028Z</time></trkpt><trkpt lat="45.6240471" lon="11.400589"><ele>160.71428571428572</ele><time>2026-04-17T15:59:06.028Z</time></trkpt><trkpt lat="45.6239744" lon="11.4005867"><ele>160.85714285714286</ele><time>2026-04-17T15:59:10.028Z</time></trkpt><trkpt lat="45.6238995" lon="11.4005859"><ele>161.0</ele><time>2026-04-17T15:59:15.027Z</time></trkpt><trkpt lat="45.6238304" lon="11.4005989"><ele>161.0</ele><time>2026-04-17T15:59:20.027Z</time></trkpt><trkpt lat="45.6237668" lon="11.4006266"><ele>161.0</ele><time>2026-04-17T15:59:24.027Z</time></trkpt><trkpt lat="45.6237028" lon="11.4006179"><ele>161.0</ele><time>2026-04-17T15:59:28.027Z</time></trkpt><trkpt lat="45.6236227" lon="11.4005911"><ele>161.0</ele><time>2026-04-17T15:59:32.028Z</time></trkpt><trkpt lat="45.6235629" lon="11.4005624"><ele>161.0</ele><time>2026-04-17T15:59:35.026Z</time></trkpt><trkpt lat="45.6234979" lon="11.4005278"><ele>161.0</ele><time>2026-04-17T15:59:38.028Z</time></trkpt><trkpt lat="45.6234371" lon="11.4004953"><ele>161.0</ele><time>2026-04-17T15:59:41.027Z</time></trkpt><trkpt lat="45.6233649" lon="11.4004757"><ele>163.85714285714286</ele><time>2026-04-17T15:59:45.027Z</time></trkpt><trkpt lat="45.6232986" lon="11.4004683"><ele>166.71428571428572</ele><time>2026-04-17T15:59:48.026Z</time></trkpt><trkpt lat="45.6232318" lon="11.4004274"><ele>169.57142857142856</ele><time>2026-04-17T15:59:51.027Z</time></trkpt><trkpt lat="45.6232389" lon="11.4003264"><ele>172.42857142857144</ele><time>2026-04-17T15:59:55.027Z</time></trkpt><trkpt lat="45.6232845" lon="11.4002492"><ele>175.28571428571428</ele><time>2026-04-17T16:00:00.027Z</time></trkpt><trkpt lat="45.6233497" lon="11.4002218"><ele>178.14285714285714</ele><time>2026-04-17T16:00:06.028Z</time></trkpt><trkpt lat="45.6234027" lon="11.4001593"><ele>181.0</ele><time>2026-04-17T16:00:11.027Z</time></trkpt><trkpt lat="45.6234515" lon="11.4001006"><ele>181.0</ele><time>2026-04-17T16:00:15.028Z</time></trkpt><trkpt lat="45.6235048" lon="11.4000271"><ele>181.0</ele><time>2026-04-17T16:00:19.027Z</time></trkpt><trkpt lat="45.623563" lon="11.3999636"><ele>181.0</ele><time>2026-04-17T16:00:23.028Z</time></trkpt><trkpt lat="45.6236062" lon="11.3998778"><ele>181.0</ele><time>2026-04-17T16:00:27.027Z</time></trkpt><trkpt lat="45.6236508" lon="11.399786"><ele>181.0</ele><time>2026-04-17T16:00:31.028Z</time></trkpt><trkpt lat="45.6237009" lon="11.399704"><ele>181.0</ele><time>2026-04-17T16:00:35.027Z</time></trkpt><trkpt lat="45.6237503" lon="11.3996249"><ele>181.85714285714286</ele><time>2026-04-17T16:00:40.028Z</time></trkpt><trkpt lat="45.6238065" lon="11.3995728"><ele>182.71428571428572</ele><time>2026-04-17T16:00:46.027Z</time></trkpt><trkpt lat="45.6238523" lon="11.3995104"><ele>183.57142857142856</ele><time>2026-04-17T16:00:50.027Z</time></trkpt><trkpt lat="45.6238928" lon="11.3994392"><ele>184.42857142857144</ele><time>2026-04-17T16:00:55.027Z</time></trkpt><trkpt lat="45.6239383" lon="11.3993658"><ele>185.2857142857143</ele><time>2026-04-17T16:01:00.027Z</time></trkpt><trkpt lat="45.6239801" lon="11.3992913"><ele>186.14285714285714</ele><time>2026-04-17T16:01:05.028Z</time></trkpt><trkpt lat="45.6240362" lon="11.3992494"><ele>187.0</ele><time>2026-04-17T16:01:11.027Z</time></trkpt><trkpt lat="45.6240938" lon="11.3992"><ele>187.0</ele><time>2026-04-17T16:01:16.026Z</time></trkpt><trkpt lat="45.624137" lon="11.3991311"><ele>187.0</ele><time>2026-04-17T16:01:21.027Z</time></trkpt><trkpt lat="45.6241853" lon="11.3990692"><ele>187.0</ele><time>2026-04-17T16:01:27.028Z</time></trkpt><trkpt lat="45.6242206" lon="11.3989816"><ele>187.0</ele><time>2026-04-17T16:01:33.027Z</time></trkpt><trkpt lat="45.6242458" lon="11.3988851"><ele>187.0</ele><time>2026-04-17T16:01:37.028Z</time></trkpt><trkpt lat="45.6242733" lon="11.3987972"><ele>187.0</ele><time>2026-04-17T16:01:41.027Z</time></trkpt><trkpt lat="45.6242959" lon="11.3987025"><ele>187.0</ele><time>2026-04-17T16:01:45.028Z</time></trkpt><trkpt lat="45.6243415" lon="11.3986297"><ele>186.14285714285714</ele><time>2026-04-17T16:01:50.028Z</time></trkpt><trkpt lat="45.6243852" lon="11.3985625"><ele>185.2857142857143</ele><time>2026-04-17T16:01:55.027Z</time></trkpt><trkpt lat="45.6244301" lon="11.3984964"><ele>184.42857142857144</ele><time>2026-04-17T16:01:59.028Z</time></trkpt><trkpt lat="45.6244798" lon="11.398423"><ele>183.57142857142856</ele><time>2026-04-17T16:02:04.026Z</time></trkpt><trkpt lat="45.6245233" lon="11.398342"><ele>182.71428571428572</ele><time>2026-04-17T16:02:08.026Z</time></trkpt><trkpt lat="45.624562" lon="11.3982671"><ele>181.85714285714286</ele><time>2026-04-17T16:02:12.028Z</time></trkpt><trkpt lat="45.6246079" lon="11.3982012"><ele>181.0</ele><time>2026-04-17T16:02:18.028Z</time></trkpt><trkpt lat="45.6246481" lon="11.3981111"><ele>181.0</ele><time>2026-04-17T16:02:25.028Z</time></trkpt><trkpt lat="45.6246563" lon="11.3980206"><ele>181.0</ele><time>2026-04-17T16:02:29.027Z</time></trkpt><trkpt lat="45.6246594" lon="11.3979285"><ele>181.0</ele><time>2026-04-17T16:02:32.027Z</time></trkpt><trkpt lat="45.6246746" lon="11.3978369"><ele>181.0</ele><time>2026-04-17T16:02:35.028Z</time></trkpt><trkpt lat="45.6246795" lon="11.3977444"><ele>181.0</ele><time>2026-04-17T16:02:38.028Z</time></trkpt><trkpt lat="45.6246999" lon="11.3976571"><ele>181.0</ele><time>2026-04-17T16:02:41.028Z</time></trkpt><trkpt lat="45.6247449" lon="11.3975702"><ele>181.0</ele><time>2026-04-17T16:02:45.028Z</time></trkpt><trkpt lat="45.6247743" lon="11.3974715"><ele>183.16666666666669</ele><time>2026-04-17T16:02:48.027Z</time></trkpt><trkpt lat="45.6247951" lon="11.3973687"><ele>185.33333333333334</ele><time>2026-04-17T16:02:51.026Z</time></trkpt><trkpt lat="45.6248002" lon="11.3972573"><ele>187.5</ele><time>2026-04-17T16:02:54.028Z</time></trkpt><trkpt lat="45.6247981" lon="11.3971217"><ele>189.66666666666669</ele><time>2026-04-17T16:02:57.028Z</time></trkpt><trkpt lat="45.6247967" lon="11.3970257"><ele>191.83333333333334</ele><time>2026-04-17T16:02:59.028Z</time></trkpt><trkpt lat="45.6247669" lon="11.3969143"><ele>194.0</ele><time>2026-04-17T16:03:02.027Z</time></trkpt><trkpt lat="45.6247165" lon="11.3968533"><ele>195.57142857142856</ele><time>2026-04-17T16:03:05.028Z</time></trkpt><trkpt lat="45.624683" lon="11.3967459"><ele>197.14285714285717</ele><time>2026-04-17T16:03:09.028Z</time></trkpt><trkpt lat="45.62469" lon="11.3966453"><ele>198.71428571428572</ele><time>2026-04-17T16:03:12.027Z</time></trkpt><trkpt lat="45.62468" lon="11.3965377"><ele>200.28571428571428</ele><time>2026-04-17T16:03:16.028Z</time></trkpt><trkpt lat="45.624724" lon="11.3964571"><ele>201.85714285714283</ele><time>2026-04-17T16:03:20.028Z</time></trkpt><trkpt lat="45.6247611" lon="11.3963775"><ele>203.42857142857144</ele><time>2026-04-17T16:03:23.028Z</time></trkpt><trkpt lat="45.6247906" lon="11.3962902"><ele>205.0</ele><time>2026-04-17T16:03:26.027Z</time></trkpt><trkpt lat="45.6248543" lon="11.3962271"><ele>205.99999999999997</ele><time>2026-04-17T16:03:29.028Z</time></trkpt><trkpt lat="45.624899" lon="11.3961409"><ele>207.0</ele><time>2026-04-17T16:03:33.028Z</time></trkpt><trkpt lat="45.6248934" lon="11.3960456"><ele>208.0</ele><time>2026-04-17T16:03:36.028Z</time></trkpt><trkpt lat="45.6248809" lon="11.3959571"><ele>209.0</ele><time>2026-04-17T16:03:40.028Z</time></trkpt><trkpt lat="45.6248869" lon="11.3958383"><ele>209.99999999999997</ele><time>2026-04-17T16:03:45.027Z</time></trkpt><trkpt lat="45.6248801" lon="11.3957206"><ele>211.0</ele><time>2026-04-17T16:03:48.027Z</time></trkpt><trkpt lat="45.624888" lon="11.3956008"><ele>211.49999999999997</ele><time>2026-04-17T16:03:51.027Z</time></trkpt><trkpt lat="45.6249045" lon="11.3954744"><ele>212.0</ele><time>2026-04-17T16:03:54.027Z</time></trkpt><trkpt lat="45.6249059" lon="11.3953462"><ele>212.5</ele><time>2026-04-17T16:03:57.028Z</time></trkpt><trkpt lat="45.6249046" lon="11.3952377"><ele>213.0</ele><time>2026-04-17T16:04:00.028Z</time></trkpt><trkpt lat="45.6249201" lon="11.3951206"><ele>213.49999999999997</ele><time>2026-04-17T16:04:03.028Z</time></trkpt><trkpt lat="45.6249349" lon="11.3949872"><ele>214.0</ele><time>2026-04-17T16:04:06.026Z</time></trkpt><trkpt lat="45.6249438" lon="11.3948931"><ele>213.99999999999997</ele><time>2026-04-17T16:04:08.028Z</time></trkpt><trkpt lat="45.624969" lon="11.3947777"><ele>214.0</ele><time>2026-04-17T16:04:11.027Z</time></trkpt><trkpt lat="45.6250105" lon="11.3946911"><ele>214.0</ele><time>2026-04-17T16:04:14.028Z</time></trkpt><trkpt lat="45.6250687" lon="11.3946237"><ele>214.0</ele><time>2026-04-17T16:04:22.027Z</time></trkpt><trkpt lat="45.6250937" lon="11.3945382"><ele>213.99999999999997</ele><time>2026-04-17T16:04:25.028Z</time></trkpt><trkpt lat="45.6251046" lon="11.394417"><ele>214.0</ele><time>2026-04-17T16:04:28.028Z</time></trkpt><trkpt lat="45.6251017" lon="11.3943071"><ele>214.75</ele><time>2026-04-17T16:04:31.028Z</time></trkpt><trkpt lat="45.6248955" lon="11.394145"><ele>215.5</ele><time>2026-04-17T16:04:33.027Z</time></trkpt><trkpt lat="45.6249681" lon="11.3940533"><ele>216.25</ele><time>2026-04-17T16:04:37.028Z</time></trkpt><trkpt lat="45.6250321" lon="11.3939736"><ele>217.0</ele><time>2026-04-17T16:04:40.027Z</time></trkpt><trkpt lat="45.6250593" lon="11.393877"><ele>218.16666666666666</ele><time>2026-04-17T16:04:42.027Z</time></trkpt><trkpt lat="45.6250748" lon="11.3937555"><ele>219.33333333333331</ele><time>2026-04-17T16:04:44.027Z</time></trkpt><trkpt lat="45.6250967" lon="11.3936504"><ele>220.5</ele><time>2026-04-17T16:04:46.027Z</time></trkpt><trkpt lat="45.6251384" lon="11.3935494"><ele>221.66666666666669</ele><time>2026-04-17T16:04:49.027Z</time></trkpt><trkpt lat="45.6251574" lon="11.3934366"><ele>222.83333333333334</ele><time>2026-04-17T16:04:53.027Z</time></trkpt><trkpt lat="45.6251264" lon="11.3933382"><ele>224.0</ele><time>2026-04-17T16:04:56.028Z</time></trkpt><trkpt lat="45.6251029" lon="11.3932395"><ele>224.00000000000003</ele><time>2026-04-17T16:05:00.028Z</time></trkpt><trkpt lat="45.6251751" lon="11.393213"><ele>224.0</ele><time>2026-04-17T16:05:04.028Z</time></trkpt><trkpt lat="45.6252376" lon="11.3931568"><ele>224.0</ele><time>2026-04-17T16:05:08.028Z</time></trkpt><trkpt lat="45.6252877" lon="11.3930952"><ele>224.0</ele><time>2026-04-17T16:05:10.028Z</time></trkpt><trkpt lat="45.6253439" lon="11.3930182"><ele>224.00000000000003</ele><time>2026-04-17T16:05:13.028Z</time></trkpt><trkpt lat="45.6253625" lon="11.3928922"><ele>224.0</ele><time>2026-04-17T16:05:16.028Z</time></trkpt><trkpt lat="45.6253658" lon="11.3927361"><ele>224.28571428571428</ele><time>2026-04-17T16:05:18.027Z</time></trkpt><trkpt lat="45.625375" lon="11.3926435"><ele>224.57142857142856</ele><time>2026-04-17T16:05:19.028Z</time></trkpt><trkpt lat="45.6253905" lon="11.3925413"><ele>224.85714285714286</ele><time>2026-04-17T16:05:20.028Z</time></trkpt><trkpt lat="45.6254063" lon="11.3924463"><ele>225.14285714285714</ele><time>2026-04-17T16:05:21.027Z</time></trkpt><trkpt lat="45.6254228" lon="11.3923547"><ele>225.42857142857142</ele><time>2026-04-17T16:05:22.027Z</time></trkpt><trkpt lat="45.6254362" lon="11.3922666"><ele>225.71428571428572</ele><time>2026-04-17T16:05:23.027Z</time></trkpt><trkpt lat="45.625451" lon="11.3921759"><ele>226.0</ele><time>2026-04-17T16:05:25.028Z</time></trkpt><trkpt lat="45.6255148" lon="11.3920817"><ele>226.0</ele><time>2026-04-17T16:05:28.028Z</time></trkpt><trkpt lat="45.6255749" lon="11.392049"><ele>226.0</ele><time>2026-04-17T16:05:30.028Z</time></trkpt><trkpt lat="45.6256376" lon="11.3920342"><ele>226.0</ele><time>2026-04-17T16:05:33.028Z</time></trkpt><trkpt lat="45.6257102" lon="11.3920048"><ele>226.0</ele><time>2026-04-17T16:05:36.028Z</time></trkpt><trkpt lat="45.6257741" lon="11.3919539"><ele>226.0</ele><time>2026-04-17T16:05:38.028Z</time></trkpt><trkpt lat="45.6258328" lon="11.3919005"><ele>226.0</ele><time>2026-04-17T16:05:40.027Z</time></trkpt><trkpt lat="45.6258941" lon="11.3918747"><ele>226.0</ele><time>2026-04-17T16:05:42.026Z</time></trkpt><trkpt lat="45.6259817" lon="11.3918676"><ele>226.0</ele><time>2026-04-17T16:05:45.028Z</time></trkpt><trkpt lat="45.626055" lon="11.3918756"><ele>226.0</ele><time>2026-04-17T16:05:48.027Z</time></trkpt><trkpt lat="45.6261238" lon="11.3918946"><ele>226.0</ele><time>2026-04-17T16:05:52.028Z</time></trkpt><trkpt lat="45.6262025" lon="11.3919224"><ele>226.0</ele><time>2026-04-17T16:05:57.028Z</time></trkpt><trkpt lat="45.6262829" lon="11.3919003"><ele>226.0</ele><time>2026-04-17T16:06:04.028Z</time></trkpt><trkpt lat="45.6263536" lon="11.3918944"><ele>226.0</ele><time>2026-04-17T16:06:08.027Z</time></trkpt><trkpt lat="45.6264239" lon="11.3918806"><ele>226.0</ele><time>2026-04-17T16:06:11.028Z</time></trkpt><trkpt lat="45.6265082" lon="11.3918589"><ele>226.14285714285717</ele><time>2026-04-17T16:06:15.028Z</time></trkpt><trkpt lat="45.6265772" lon="11.3918341"><ele>226.28571428571428</ele><time>2026-04-17T16:06:18.027Z</time></trkpt><trkpt lat="45.6266547" lon="11.3918195"><ele>226.42857142857144</ele><time>2026-04-17T16:06:21.027Z</time></trkpt><trkpt lat="45.6267304" lon="11.3917909"><ele>226.57142857142858</ele><time>2026-04-17T16:06:24.027Z</time></trkpt><trkpt lat="45.6267975" lon="11.3917561"><ele>226.71428571428572</ele><time>2026-04-17T16:06:27.027Z</time></trkpt><trkpt lat="45.6268633" lon="11.3917294"><ele>226.85714285714286</ele><time>2026-04-17T16:06:30.026Z</time></trkpt><trkpt lat="45.6269327" lon="11.3917003"><ele>227.0</ele><time>2026-04-17T16:06:34.026Z</time></trkpt><trkpt lat="45.6270034" lon="11.3916883"><ele>227.00000000000003</ele><time>2026-04-17T16:06:39.028Z</time></trkpt><trkpt lat="45.6270655" lon="11.3916615"><ele>227.0</ele><time>2026-04-17T16:06:42.027Z</time></trkpt><trkpt lat="45.6271277" lon="11.3916321"><ele>227.0</ele><time>2026-04-17T16:06:46.027Z</time></trkpt><trkpt lat="45.6272242" lon="11.3916333"><ele>227.0</ele><time>2026-04-17T16:06:50.028Z</time></trkpt><trkpt lat="45.6273324" lon="11.3916384"><ele>227.00000000000003</ele><time>2026-04-17T16:06:57.028Z</time></trkpt><trkpt lat="45.6273981" lon="11.3916055"><ele>227.0</ele><time>2026-04-17T16:07:01.028Z</time></trkpt><trkpt lat="45.6274761" lon="11.3915815"><ele>227.00000000000003</ele><time>2026-04-17T16:07:05.026Z</time></trkpt><trkpt lat="45.6275557" lon="11.3915287"><ele>227.0</ele><time>2026-04-17T16:07:08.026Z</time></trkpt><trkpt lat="45.6276292" lon="11.3914608"><ele>227.0</ele><time>2026-04-17T16:07:11.028Z</time></trkpt><trkpt lat="45.6276858" lon="11.3913987"><ele>227.0</ele><time>2026-04-17T16:07:14.028Z</time></trkpt><trkpt lat="45.6277495" lon="11.3913554"><ele>227.00000000000003</ele><time>2026-04-17T16:07:18.027Z</time></trkpt><trkpt lat="45.6278189" lon="11.3913098"><ele>227.0</ele><time>2026-04-17T16:07:23.027Z</time></trkpt><trkpt lat="45.6278997" lon="11.3912728"><ele>230.5</ele><time>2026-04-17T16:07:27.027Z</time></trkpt><trkpt lat="45.6279846" lon="11.3912587"><ele>234.0</ele><time>2026-04-17T16:07:30.028Z</time></trkpt><trkpt lat="45.6280592" lon="11.391216"><ele>237.5</ele><time>2026-04-17T16:07:34.026Z</time></trkpt><trkpt lat="45.6281313" lon="11.3911604"><ele>241.0</ele><time>2026-04-17T16:07:38.027Z</time></trkpt><trkpt lat="45.6283689" lon="11.3911399"><ele>240.99999999999997</ele><time>2026-04-17T16:07:45.026Z</time></trkpt><trkpt lat="45.6284599" lon="11.391109"><ele>241.0</ele><time>2026-04-17T16:07:48.027Z</time></trkpt><trkpt lat="45.6285248" lon="11.3910289"><ele>241.0</ele><time>2026-04-17T16:07:51.028Z</time></trkpt><trkpt lat="45.6285843" lon="11.3909395"><ele>241.0</ele><time>2026-04-17T16:07:54.027Z</time></trkpt><trkpt lat="45.6286335" lon="11.3908613"><ele>240.99999999999997</ele><time>2026-04-17T16:07:57.027Z</time></trkpt><trkpt lat="45.6286894" lon="11.3907928"><ele>241.0</ele><time>2026-04-17T16:08:01.027Z</time></trkpt><trkpt lat="45.6287454" lon="11.3907055"><ele>242.71428571428572</ele><time>2026-04-17T16:08:04.027Z</time></trkpt><trkpt lat="45.6287704" lon="11.3906157"><ele>244.42857142857144</ele><time>2026-04-17T16:08:07.028Z</time></trkpt><trkpt lat="45.6287812" lon="11.390519"><ele>246.14285714285717</ele><time>2026-04-17T16:08:11.028Z</time></trkpt><trkpt lat="45.6288357" lon="11.3904601"><ele>247.8571428571429</ele><time>2026-04-17T16:08:16.028Z</time></trkpt><trkpt lat="45.6289052" lon="11.3904359"><ele>249.57142857142858</ele><time>2026-04-17T16:08:21.026Z</time></trkpt><trkpt lat="45.628969" lon="11.3903969"><ele>251.28571428571433</ele><time>2026-04-17T16:08:26.028Z</time></trkpt><trkpt lat="45.6290348" lon="11.3903431"><ele>253.00000000000003</ele><time>2026-04-17T16:08:30.028Z</time></trkpt><trkpt lat="45.6290804" lon="11.3902422"><ele>253.00000000000003</ele><time>2026-04-17T16:08:33.026Z</time></trkpt><trkpt lat="45.6290935" lon="11.3901476"><ele>253.0</ele><time>2026-04-17T16:08:35.028Z</time></trkpt><trkpt lat="45.6291206" lon="11.3900394"><ele>253.00000000000003</ele><time>2026-04-17T16:08:38.028Z</time></trkpt><trkpt lat="45.6291613" lon="11.389948"><ele>253.00000000000003</ele><time>2026-04-17T16:08:43.028Z</time></trkpt><trkpt lat="45.6292249" lon="11.3899587"><ele>253.0</ele><time>2026-04-17T16:08:47.028Z</time></trkpt><trkpt lat="45.6292865" lon="11.3899085"><ele>253.00000000000003</ele><time>2026-04-17T16:08:52.844Z</time></trkpt><trkpt lat="45.6292428" lon="11.3899888"><ele>253.00000000000003</ele><time>2026-04-17T16:08:57.028Z</time></trkpt><trkpt lat="45.6293242" lon="11.3900148"><ele>252.99999999999997</ele><time>2026-04-17T16:09:08.026Z</time></trkpt><trkpt lat="45.629392" lon="11.3900346"><ele>253.0</ele><time>2026-04-17T16:09:11.028Z</time></trkpt><trkpt lat="45.6294595" lon="11.3900399"><ele>253.0</ele><time>2026-04-17T16:09:14.027Z</time></trkpt><trkpt lat="45.6296008" lon="11.3900193"><ele>253.0</ele><time>2026-04-17T16:09:32.027Z</time></trkpt><trkpt lat="45.6296306" lon="11.3899252"><ele>252.99999999999997</ele><time>2026-04-17T16:09:38.027Z</time></trkpt><trkpt lat="45.6297142" lon="11.3899163"><ele>253.0</ele><time>2026-04-17T16:09:46.028Z</time></trkpt><trkpt lat="45.6298306" lon="11.3899364"><ele>255.00000000000003</ele><time>2026-04-17T16:09:56.028Z</time></trkpt><trkpt lat="45.6298873" lon="11.3898681"><ele>257.0</ele><time>2026-04-17T16:10:05.027Z</time></trkpt><trkpt lat="45.6299197" lon="11.3897827"><ele>259.0</ele><time>2026-04-17T16:10:11.028Z</time></trkpt><trkpt lat="45.629942" lon="11.3896895"><ele>261.0</ele><time>2026-04-17T16:10:16.027Z</time></trkpt><trkpt lat="45.6300243" lon="11.3896631"><ele>263.0</ele><time>2026-04-17T16:10:23.028Z</time></trkpt><trkpt lat="45.6300648" lon="11.3895836"><ele>265.00000000000006</ele><time>2026-04-17T16:10:29.027Z</time></trkpt><trkpt lat="45.6301277" lon="11.3895336"><ele>267.0</ele><time>2026-04-17T16:10:34.028Z</time></trkpt><trkpt lat="45.6301722" lon="11.3894469"><ele>267.00000000000006</ele><time>2026-04-17T16:10:38.028Z</time></trkpt><trkpt lat="45.6301978" lon="11.3893528"><ele>267.0</ele><time>2026-04-17T16:10:41.028Z</time></trkpt><trkpt lat="45.6302105" lon="11.3892519"><ele>267.0</ele><time>2026-04-17T16:10:44.027Z</time></trkpt><trkpt lat="45.6302383" lon="11.3891435"><ele>267.0</ele><time>2026-04-17T16:10:48.027Z</time></trkpt><trkpt lat="45.630269" lon="11.3890504"><ele>267.0</ele><time>2026-04-17T16:10:52.026Z</time></trkpt><trkpt lat="45.6303046" lon="11.3889757"><ele>267.00000000000006</ele><time>2026-04-17T16:10:55.028Z</time></trkpt><trkpt lat="45.6303332" lon="11.3888946"><ele>267.0</ele><time>2026-04-17T16:10:58.028Z</time></trkpt><trkpt lat="45.6303585" lon="11.3887945"><ele>269.28571428571433</ele><time>2026-04-17T16:11:02.028Z</time></trkpt><trkpt lat="45.6303876" lon="11.3887088"><ele>271.57142857142856</ele><time>2026-04-17T16:11:07.027Z</time></trkpt><trkpt lat="45.6304452" lon="11.3886609"><ele>273.8571428571429</ele><time>2026-04-17T16:11:15.028Z</time></trkpt><trkpt lat="45.6305081" lon="11.3886152"><ele>276.14285714285717</ele><time>2026-04-17T16:11:20.027Z</time></trkpt><trkpt lat="45.6305343" lon="11.3885233"><ele>278.42857142857144</ele><time>2026-04-17T16:11:23.028Z</time></trkpt><trkpt lat="45.6305554" lon="11.3884304"><ele>280.7142857142857</ele><time>2026-04-17T16:11:26.027Z</time></trkpt><trkpt lat="45.6305879" lon="11.3883328"><ele>283.0</ele><time>2026-04-17T16:11:30.028Z</time></trkpt><trkpt lat="45.6306233" lon="11.3882423"><ele>283.0</ele><time>2026-04-17T16:11:34.027Z</time></trkpt><trkpt lat="45.6306847" lon="11.3882038"><ele>283.0</ele><time>2026-04-17T16:11:38.027Z</time></trkpt><trkpt lat="45.6307521" lon="11.3882003"><ele>283.0</ele><time>2026-04-17T16:11:41.028Z</time></trkpt><trkpt lat="45.6308187" lon="11.3881823"><ele>283.0</ele><time>2026-04-17T16:11:45.027Z</time></trkpt><trkpt lat="45.6308817" lon="11.3881225"><ele>283.0</ele><time>2026-04-17T16:11:50.028Z</time></trkpt><trkpt lat="45.6308801" lon="11.3880286"><ele>283.0</ele><time>2026-04-17T16:11:54.027Z</time></trkpt><trkpt lat="45.6308972" lon="11.3879299"><ele>283.0</ele><time>2026-04-17T16:11:59.027Z</time></trkpt><trkpt lat="45.6309015" lon="11.3878254"><ele>283.2857142857143</ele><time>2026-04-17T16:12:02.028Z</time></trkpt><trkpt lat="45.6308986" lon="11.3877216"><ele>283.5714285714286</ele><time>2026-04-17T16:12:05.028Z</time></trkpt><trkpt lat="45.630905" lon="11.3876279"><ele>283.8571428571429</ele><time>2026-04-17T16:12:09.027Z</time></trkpt><trkpt lat="45.6309413" lon="11.3875485"><ele>284.14285714285717</ele><time>2026-04-17T16:12:14.027Z</time></trkpt><trkpt lat="45.6309952" lon="11.3875013"><ele>284.42857142857144</ele><time>2026-04-17T16:12:19.026Z</time></trkpt><trkpt lat="45.6309999" lon="11.3874045"><ele>284.7142857142857</ele><time>2026-04-17T16:12:24.028Z</time></trkpt><trkpt lat="45.6310106" lon="11.387299"><ele>285.0</ele><time>2026-04-17T16:12:28.026Z</time></trkpt><trkpt lat="45.6310315" lon="11.3872105"><ele>286.25</ele><time>2026-04-17T16:12:31.028Z</time></trkpt><trkpt lat="45.6310538" lon="11.3871209"><ele>287.5</ele><time>2026-04-17T16:12:35.028Z</time></trkpt><trkpt lat="45.6310974" lon="11.3870533"><ele>288.75</ele><time>2026-04-17T16:12:40.027Z</time></trkpt><trkpt lat="45.6311274" lon="11.3871364"><ele>290.0</ele><time>2026-04-17T16:12:59.027Z</time></trkpt><trkpt lat="45.6256376" lon="11.3920342"><ele>280.8571428571429</ele><time>2026-04-17T16:05:33.028Z</time></trkpt><trkpt lat="45.6257102" lon="11.3920048"><ele>271.7142857142857</ele><time>2026-04-17T16:05:36.028Z</time></trkpt><trkpt lat="45.6257741" lon="11.3919539"><ele>262.57142857142856</ele><time>2026-04-17T16:05:38.028Z</time></trkpt><trkpt lat="45.6258328" lon="11.3919005"><ele>253.42857142857144</ele><time>2026-04-17T16:05:40.027Z</time></trkpt><trkpt lat="45.6258941" lon="11.3918747"><ele>244.28571428571428</ele><time>2026-04-17T16:05:42.026Z</time></trkpt><trkpt lat="45.6259817" lon="11.3918676"><ele>235.14285714285717</ele><time>2026-04-17T16:05:45.028Z</time></trkpt><trkpt lat="45.626055" lon="11.3918756"><ele>226.0</ele><time>2026-04-17T16:05:48.027Z</time></trkpt><trkpt lat="45.6261238" lon="11.3918946"><ele>225.33333333333331</ele><time>2026-04-17T16:05:52.028Z</time></trkpt><trkpt lat="45.6262025" lon="11.3919224"><ele>224.66666666666666</ele><time>2026-04-17T16:05:57.028Z</time></trkpt><trkpt lat="45.6262829" lon="11.3919003"><ele>224.0</ele><time>2026-04-17T16:06:04.028Z</time></trkpt><trkpt lat="45.6263536" lon="11.3918944"><ele>223.33333333333331</ele><time>2026-04-17T16:06:08.027Z</time></trkpt><trkpt lat="45.6264239" lon="11.3918806"><ele>222.66666666666666</ele><time>2026-04-17T16:06:11.028Z</time></trkpt><trkpt lat="45.6265082" lon="11.3918589"><ele>222.0</ele><time>2026-04-17T16:06:15.028Z</time></trkpt><trkpt lat="45.6265772" lon="11.3918341"><ele>222.0</ele><time>2026-04-17T16:06:18.027Z</time></trkpt><trkpt lat="45.6266547" lon="11.3918195"><ele>222.0</ele><time>2026-04-17T16:06:21.027Z</time></trkpt><trkpt lat="45.6267304" lon="11.3917909"><ele>222.0</ele><time>2026-04-17T16:06:24.027Z</time></trkpt><trkpt lat="45.6267975" lon="11.3917561"><ele>222.0</ele><time>2026-04-17T16:06:27.027Z</time></trkpt><trkpt lat="45.6268633" lon="11.3917294"><ele>222.0</ele><time>2026-04-17T16:06:30.026Z</time></trkpt><trkpt lat="45.6269327" lon="11.3917003"><ele>222.0</ele><time>2026-04-17T16:06:34.026Z</time></trkpt><trkpt lat="45.6270034" lon="11.3916883"><ele>222.0</ele><time>2026-04-17T16:06:39.028Z</time></trkpt><trkpt lat="45.6270655" lon="11.3916615"><ele>222.83333333333334</ele><time>2026-04-17T16:06:42.027Z</time></trkpt><trkpt lat="45.6271277" lon="11.3916321"><ele>223.66666666666669</ele><time>2026-04-17T16:06:46.027Z</time></trkpt><trkpt lat="45.6272242" lon="11.3916333"><ele>224.5</ele><time>2026-04-17T16:06:50.028Z</time></trkpt><trkpt lat="45.6273324" lon="11.3916384"><ele>225.33333333333334</ele><time>2026-04-17T16:06:57.028Z</time></trkpt><trkpt lat="45.6273981" lon="11.3916055"><ele>226.16666666666669</ele><time>2026-04-17T16:07:01.028Z</time></trkpt><trkpt lat="45.6274761" lon="11.3915815"><ele>227.0</ele><time>2026-04-17T16:07:05.026Z</time></trkpt><trkpt lat="45.6275557" lon="11.3915287"><ele>227.00000000000003</ele><time>2026-04-17T16:07:08.026Z</time></trkpt><trkpt lat="45.6276292" lon="11.3914608"><ele>227.0</ele><time>2026-04-17T16:07:11.028Z</time></trkpt><trkpt lat="45.6276858" lon="11.3913987"><ele>227.0</ele><time>2026-04-17T16:07:14.028Z</time></trkpt><trkpt lat="45.6277495" lon="11.3913554"><ele>227.0</ele><time>2026-04-17T16:07:18.027Z</time></trkpt><trkpt lat="45.6278189" lon="11.3913098"><ele>227.00000000000003</ele><time>2026-04-17T16:07:23.027Z</time></trkpt><trkpt lat="45.6278997" lon="11.3912728"><ele>227.0</ele><time>2026-04-17T16:07:27.027Z</time></trkpt><trkpt lat="45.6279846" lon="11.3912587"><ele>230.5</ele><time>2026-04-17T16:07:30.028Z</time></trkpt><trkpt lat="45.6280592" lon="11.391216"><ele>234.0</ele><time>2026-04-17T16:07:34.026Z</time></trkpt><trkpt lat="45.6281313" lon="11.3911604"><ele>237.5</ele><time>2026-04-17T16:07:38.027Z</time></trkpt><trkpt lat="45.6283689" lon="11.3911399"><ele>241.0</ele><time>2026-04-17T16:07:45.026Z</time></trkpt><trkpt lat="45.6284599" lon="11.391109"><ele>240.99999999999997</ele><time>2026-04-17T16:07:48.027Z</time></trkpt><trkpt lat="45.6285248" lon="11.3910289"><ele>241.0</ele><time>2026-04-17T16:07:51.028Z</time></trkpt><trkpt lat="45.6285843" lon="11.3909395"><ele>241.0</ele><time>2026-04-17T16:07:54.027Z</time></trkpt><trkpt lat="45.6286335" lon="11.3908613"><ele>241.0</ele><time>2026-04-17T16:07:57.027Z</time></trkpt><trkpt lat="45.6286894" lon="11.3907928"><ele>240.99999999999997</ele><time>2026-04-17T16:08:01.027Z</time></trkpt><trkpt lat="45.6287454" lon="11.3907055"><ele>241.0</ele><time>2026-04-17T16:08:04.027Z</time></trkpt><trkpt lat="45.6287704" lon="11.3906157"><ele>242.71428571428572</ele><time>2026-04-17T16:08:07.028Z</time></trkpt><trkpt lat="45.6287812" lon="11.390519"><ele>244.42857142857144</ele><time>2026-04-17T16:08:11.028Z</time></trkpt><trkpt lat="45.6288357" lon="11.3904601"><ele>246.14285714285717</ele><time>2026-04-17T16:08:16.028Z</time></trkpt><trkpt lat="45.6289052" lon="11.3904359"><ele>247.8571428571429</ele><time>2026-04-17T16:08:21.026Z</time></trkpt><trkpt lat="45.628969" lon="11.3903969"><ele>249.57142857142858</ele><time>2026-04-17T16:08:26.028Z</time></trkpt><trkpt lat="45.6290348" lon="11.3903431"><ele>251.28571428571433</ele><time>2026-04-17T16:08:30.028Z</time></trkpt><trkpt lat="45.6290804" lon="11.3902422"><ele>253.00000000000003</ele><time>2026-04-17T16:08:33.026Z</time></trkpt><trkpt lat="45.6290935" lon="11.3901476"><ele>253.00000000000003</ele><time>2026-04-17T16:08:35.028Z</time></trkpt><trkpt lat="45.6291206" lon="11.3900394"><ele>253.0</ele><time>2026-04-17T16:08:38.028Z</time></trkpt><trkpt lat="45.6291613" lon="11.389948"><ele>253.00000000000003</ele><time>2026-04-17T16:08:43.028Z</time></trkpt><trkpt lat="45.6292249" lon="11.3899587"><ele>253.00000000000003</ele><time>2026-04-17T16:08:47.028Z</time></trkpt><trkpt lat="45.6292865" lon="11.3899085"><ele>253.0</ele><time>2026-04-17T16:08:52.844Z</time></trkpt><trkpt lat="45.6292428" lon="11.3899888"><ele>253.00000000000003</ele><time>2026-04-17T16:08:57.028Z</time></trkpt><trkpt lat="45.6293242" lon="11.3900148"><ele>253.00000000000003</ele><time>2026-04-17T16:09:08.026Z</time></trkpt><trkpt lat="45.629392" lon="11.3900346"><ele>253.0</ele><time>2026-04-17T16:09:11.028Z</time></trkpt><trkpt lat="45.6294595" lon="11.3900399"><ele>253.0</ele><time>2026-04-17T16:09:14.027Z</time></trkpt><trkpt lat="45.6296008" lon="11.3900193"><ele>253.0</ele><time>2026-04-17T16:09:32.027Z</time></trkpt><trkpt lat="45.6296306" lon="11.3899252"><ele>253.0</ele><time>2026-04-17T16:09:38.027Z</time></trkpt><trkpt lat="45.6297142" lon="11.3899163"><ele>253.0</ele><time>2026-04-17T16:09:46.028Z</time></trkpt><trkpt lat="45.6298306" lon="11.3899364"><ele>255.00000000000003</ele><time>2026-04-17T16:09:56.028Z</time></trkpt><trkpt lat="45.6298873" lon="11.3898681"><ele>257.0</ele><time>2026-04-17T16:10:05.027Z</time></trkpt><trkpt lat="45.6299197" lon="11.3897827"><ele>259.0</ele><time>2026-04-17T16:10:11.028Z</time></trkpt><trkpt lat="45.629942" lon="11.3896895"><ele>261.0</ele><time>2026-04-17T16:10:16.027Z</time></trkpt><trkpt lat="45.6300243" lon="11.3896631"><ele>263.0</ele><time>2026-04-17T16:10:23.028Z</time></trkpt><trkpt lat="45.6300648" lon="11.3895836"><ele>265.00000000000006</ele><time>2026-04-17T16:10:29.027Z</time></trkpt><trkpt lat="45.6301277" lon="11.3895336"><ele>267.0</ele><time>2026-04-17T16:10:34.028Z</time></trkpt><trkpt lat="45.6301722" lon="11.3894469"><ele>267.00000000000006</ele><time>2026-04-17T16:10:38.028Z</time></trkpt><trkpt lat="45.6301978" lon="11.3893528"><ele>267.0</ele><time>2026-04-17T16:10:41.028Z</time></trkpt><trkpt lat="45.6302105" lon="11.3892519"><ele>267.0</ele><time>2026-04-17T16:10:44.027Z</time></trkpt><trkpt lat="45.6302383" lon="11.3891435"><ele>267.0</ele><time>2026-04-17T16:10:48.027Z</time></trkpt><trkpt lat="45.630269" lon="11.3890504"><ele>267.0</ele><time>2026-04-17T16:10:52.026Z</time></trkpt><trkpt lat="45.6303046" lon="11.3889757"><ele>267.00000000000006</ele><time>2026-04-17T16:10:55.028Z</time></trkpt><trkpt lat="45.6303332" lon="11.3888946"><ele>267.0</ele><time>2026-04-17T16:10:58.028Z</time></trkpt><trkpt lat="45.6303585" lon="11.3887945"><ele>269.28571428571433</ele><time>2026-04-17T16:11:02.028Z</time></trkpt><trkpt lat="45.6303876" lon="11.3887088"><ele>271.57142857142856</ele><time>2026-04-17T16:11:07.027Z</time></trkpt><trkpt lat="45.6304452" lon="11.3886609"><ele>273.8571428571429</ele><time>2026-04-17T16:11:15.028Z</time></trkpt><trkpt lat="45.6305081" lon="11.3886152"><ele>276.14285714285717</ele><time>2026-04-17T16:11:20.027Z</time></trkpt><trkpt lat="45.6305343" lon="11.3885233"><ele>278.42857142857144</ele><time>2026-04-17T16:11:23.028Z</time></trkpt><trkpt lat="45.6305554" lon="11.3884304"><ele>280.7142857142857</ele><time>2026-04-17T16:11:26.027Z</time></trkpt><trkpt lat="45.6305879" lon="11.3883328"><ele>283.0</ele><time>2026-04-17T16:11:30.028Z</time></trkpt><trkpt lat="45.6306233" lon="11.3882423"><ele>283.0</ele><time>2026-04-17T16:11:34.027Z</time></trkpt><trkpt lat="45.6306847" lon="11.3882038"><ele>283.0</ele><time>2026-04-17T16:11:38.027Z</time></trkpt><trkpt lat="45.6307521" lon="11.3882003"><ele>283.0</ele><time>2026-04-17T16:11:41.028Z</time></trkpt><trkpt lat="45.6308187" lon="11.3881823"><ele>283.0</ele><time>2026-04-17T16:11:45.027Z</time></trkpt><trkpt lat="45.6308817" lon="11.3881225"><ele>283.0</ele><time>2026-04-17T16:11:50.028Z</time></trkpt><trkpt lat="45.6308801" lon="11.3880286"><ele>283.0</ele><time>2026-04-17T16:11:54.027Z</time></trkpt><trkpt lat="45.6308972" lon="11.3879299"><ele>283.0</ele><time>2026-04-17T16:11:59.027Z</time></trkpt><trkpt lat="45.6309015" lon="11.3878254"><ele>283.2857142857143</ele><time>2026-04-17T16:12:02.028Z</time></trkpt><trkpt lat="45.6308986" lon="11.3877216"><ele>283.5714285714286</ele><time>2026-04-17T16:12:05.028Z</time></trkpt><trkpt lat="45.630905" lon="11.3876279"><ele>283.8571428571429</ele><time>2026-04-17T16:12:09.027Z</time></trkpt><trkpt lat="45.6309413" lon="11.3875485"><ele>284.14285714285717</ele><time>2026-04-17T16:12:14.027Z</time></trkpt><trkpt lat="45.6309952" lon="11.3875013"><ele>284.42857142857144</ele><time>2026-04-17T16:12:19.026Z</time></trkpt><trkpt lat="45.6309999" lon="11.3874045"><ele>284.7142857142857</ele><time>2026-04-17T16:12:24.028Z</time></trkpt><trkpt lat="45.6310106" lon="11.387299"><ele>285.0</ele><time>2026-04-17T16:12:28.026Z</time></trkpt><trkpt lat="45.6310315" lon="11.3872105"><ele>285.7142857142857</ele><time>2026-04-17T16:12:31.028Z</time></trkpt><trkpt lat="45.6310538" lon="11.3871209"><ele>286.42857142857144</ele><time>2026-04-17T16:12:35.028Z</time></trkpt><trkpt lat="45.6310974" lon="11.3870533"><ele>287.14285714285717</ele><time>2026-04-17T16:12:40.027Z</time></trkpt><trkpt lat="45.6311274" lon="11.3871364"><ele>287.8571428571429</ele><time>2026-04-17T16:12:59.027Z</time></trkpt><trkpt lat="45.631186" lon="11.3871962"><ele>288.5714285714286</ele><time>2026-04-17T16:13:04.026Z</time></trkpt><trkpt lat="45.6312148" lon="11.3872853"><ele>289.2857142857143</ele><time>2026-04-17T16:13:09.028Z</time></trkpt><trkpt lat="45.6311938" lon="11.3873744"><ele>290.0</ele><time>2026-04-17T16:13:14.028Z</time></trkpt><trkpt lat="45.6311634" lon="11.3874585"><ele>289.1666666666667</ele><time>2026-04-17T16:13:18.027Z</time></trkpt><trkpt lat="45.631134" lon="11.3875516"><ele>288.33333333333337</ele><time>2026-04-17T16:13:22.028Z</time></trkpt><trkpt lat="45.6311078" lon="11.3876445"><ele>287.5</ele><time>2026-04-17T16:13:26.028Z</time></trkpt><trkpt lat="45.6311063" lon="11.3877481"><ele>286.6666666666667</ele><time>2026-04-17T16:13:29.027Z</time></trkpt><trkpt lat="45.6310911" lon="11.3878567"><ele>285.8333333333333</ele><time>2026-04-17T16:13:33.028Z</time></trkpt><trkpt lat="45.6310712" lon="11.387965"><ele>285.0</ele><time>2026-04-17T16:13:37.028Z</time></trkpt><trkpt lat="45.6310586" lon="11.3880808"><ele>284.7142857142857</ele><time>2026-04-17T16:13:41.026Z</time></trkpt><trkpt lat="45.6310641" lon="11.3881897"><ele>284.42857142857144</ele><time>2026-04-17T16:13:44.028Z</time></trkpt><trkpt lat="45.6310679" lon="11.3882942"><ele>284.14285714285717</ele><time>2026-04-17T16:13:47.028Z</time></trkpt><trkpt lat="45.6310477" lon="11.3884041"><ele>283.8571428571429</ele><time>2026-04-17T16:13:51.028Z</time></trkpt><trkpt lat="45.631032" lon="11.3885059"><ele>283.5714285714286</ele><time>2026-04-17T16:13:55.027Z</time></trkpt><trkpt lat="45.6310083" lon="11.3885898"><ele>283.2857142857143</ele><time>2026-04-17T16:13:59.028Z</time></trkpt><trkpt lat="45.6309875" lon="11.3886901"><ele>283.0</ele><time>2026-04-17T16:14:04.028Z</time></trkpt><trkpt lat="45.630967" lon="11.3887972"><ele>283.0</ele><time>2026-04-17T16:14:09.028Z</time></trkpt><trkpt lat="45.6309703" lon="11.388917"><ele>283.0</ele><time>2026-04-17T16:14:12.027Z</time></trkpt><trkpt lat="45.6309697" lon="11.3890207"><ele>283.0</ele><time>2026-04-17T16:14:15.027Z</time></trkpt><trkpt lat="45.6309804" lon="11.3891132"><ele>283.0</ele><time>2026-04-17T16:14:18.027Z</time></trkpt><trkpt lat="45.6309908" lon="11.3892164"><ele>283.0</ele><time>2026-04-17T16:14:21.027Z</time></trkpt><trkpt lat="45.631024" lon="11.3893294"><ele>283.0</ele><time>2026-04-17T16:14:24.027Z</time></trkpt><trkpt lat="45.6310586" lon="11.3894217"><ele>283.0</ele><time>2026-04-17T16:14:27.026Z</time></trkpt><trkpt lat="45.6310994" lon="11.3895129"><ele>283.0</ele><time>2026-04-17T16:14:31.027Z</time></trkpt><trkpt lat="45.6311358" lon="11.3895956"><ele>283.0</ele><time>2026-04-17T16:14:35.025Z</time></trkpt><trkpt lat="45.631106" lon="11.3896861"><ele>283.0</ele><time>2026-04-17T16:14:41.025Z</time></trkpt><trkpt lat="45.631041" lon="11.3897108"><ele>283.0</ele><time>2026-04-17T16:14:46.026Z</time></trkpt><trkpt lat="45.6309789" lon="11.3897407"><ele>283.0</ele><time>2026-04-17T16:14:51.027Z</time></trkpt><trkpt lat="45.6309398" lon="11.3898247"><ele>283.0</ele><time>2026-04-17T16:14:55.026Z</time></trkpt><trkpt lat="45.6308887" lon="11.3899491"><ele>284.66666666666663</ele><time>2026-04-17T16:14:59.026Z</time></trkpt><trkpt lat="45.6308474" lon="11.3900352"><ele>286.3333333333333</ele><time>2026-04-17T16:15:02.027Z</time></trkpt><trkpt lat="45.63079" lon="11.3901222"><ele>288.0</ele><time>2026-04-17T16:15:06.025Z</time></trkpt><trkpt lat="45.6307283" lon="11.3901977"><ele>289.6666666666667</ele><time>2026-04-17T16:15:09.026Z</time></trkpt><trkpt lat="45.6306666" lon="11.3902646"><ele>291.33333333333337</ele><time>2026-04-17T16:15:13.026Z</time></trkpt><trkpt lat="45.6305984" lon="11.3903436"><ele>293.0</ele><time>2026-04-17T16:15:17.026Z</time></trkpt><trkpt lat="45.6305399" lon="11.3904033"><ele>292.99999999999994</ele><time>2026-04-17T16:15:20.027Z</time></trkpt><trkpt lat="45.630462" lon="11.3904477"><ele>293.0</ele><time>2026-04-17T16:15:24.025Z</time></trkpt><trkpt lat="45.6304048" lon="11.3904954"><ele>293.0</ele><time>2026-04-17T16:15:27.025Z</time></trkpt><trkpt lat="45.6303501" lon="11.3905809"><ele>293.0</ele><time>2026-04-17T16:15:30.027Z</time></trkpt><trkpt lat="45.6303015" lon="11.390658"><ele>293.0</ele><time>2026-04-17T16:15:33.026Z</time></trkpt><trkpt lat="45.6302471" lon="11.3907074"><ele>292.99999999999994</ele><time>2026-04-17T16:15:36.027Z</time></trkpt><trkpt lat="45.6301912" lon="11.3907569"><ele>293.0</ele><time>2026-04-17T16:15:39.026Z</time></trkpt><trkpt lat="45.6301434" lon="11.390839"><ele>293.4285714285714</ele><time>2026-04-17T16:15:42.026Z</time></trkpt><trkpt lat="45.6301102" lon="11.3909359"><ele>293.85714285714283</ele><time>2026-04-17T16:15:45.027Z</time></trkpt><trkpt lat="45.6300643" lon="11.3910254"><ele>294.2857142857143</ele><time>2026-04-17T16:15:49.026Z</time></trkpt><trkpt lat="45.6299991" lon="11.3910911"><ele>294.71428571428567</ele><time>2026-04-17T16:15:53.026Z</time></trkpt><trkpt lat="45.6299427" lon="11.3911538"><ele>295.1428571428571</ele><time>2026-04-17T16:15:56.027Z</time></trkpt><trkpt lat="45.6298933" lon="11.3912125"><ele>295.57142857142856</ele><time>2026-04-17T16:15:59.026Z</time></trkpt><trkpt lat="45.629844" lon="11.3912808"><ele>296.0</ele><time>2026-04-17T16:16:02.027Z</time></trkpt><trkpt lat="45.6298079" lon="11.3913866"><ele>300.1666666666667</ele><time>2026-04-17T16:16:05.027Z</time></trkpt><trkpt lat="45.6297608" lon="11.3914661"><ele>304.33333333333337</ele><time>2026-04-17T16:16:08.026Z</time></trkpt><trkpt lat="45.6296955" lon="11.391533"><ele>308.5</ele><time>2026-04-17T16:16:12.026Z</time></trkpt><trkpt lat="45.6296318" lon="11.3916074"><ele>312.6666666666667</ele><time>2026-04-17T16:16:16.027Z</time></trkpt><trkpt lat="45.6295916" lon="11.3916998"><ele>316.8333333333333</ele><time>2026-04-17T16:16:19.026Z</time></trkpt><trkpt lat="45.6295556" lon="11.3917932"><ele>321.0</ele><time>2026-04-17T16:16:22.027Z</time></trkpt><trkpt lat="45.6294968" lon="11.3918776"><ele>318.3333333333333</ele><time>2026-04-17T16:16:26.027Z</time></trkpt><trkpt lat="45.6294468" lon="11.3919733"><ele>315.6666666666667</ele><time>2026-04-17T16:16:30.027Z</time></trkpt><trkpt lat="45.6293972" lon="11.3920599"><ele>313.0</ele><time>2026-04-17T16:16:34.026Z</time></trkpt><trkpt lat="45.6293431" lon="11.3921356"><ele>310.33333333333337</ele><time>2026-04-17T16:16:38.026Z</time></trkpt><trkpt lat="45.6292701" lon="11.3921764"><ele>307.6666666666667</ele><time>2026-04-17T16:16:42.025Z</time></trkpt><trkpt lat="45.6292221" lon="11.3922471"><ele>305.0</ele><time>2026-04-17T16:16:45.027Z</time></trkpt><trkpt lat="45.6291882" lon="11.3923485"><ele>305.0</ele><time>2026-04-17T16:16:48.025Z</time></trkpt><trkpt lat="45.6291832" lon="11.3924763"><ele>305.0</ele><time>2026-04-17T16:16:51.026Z</time></trkpt><trkpt lat="45.6291619" lon="11.3925757"><ele>305.0</ele><time>2026-04-17T16:16:54.026Z</time></trkpt><trkpt lat="45.6291273" lon="11.392669"><ele>305.0</ele><time>2026-04-17T16:16:57.027Z</time></trkpt><trkpt lat="45.6290824" lon="11.3927407"><ele>305.0</ele><time>2026-04-17T16:17:00.026Z</time></trkpt><trkpt lat="45.6290478" lon="11.3928404"><ele>305.0</ele><time>2026-04-17T16:17:03.027Z</time></trkpt><trkpt lat="45.6290082" lon="11.3929409"><ele>308.83333333333337</ele><time>2026-04-17T16:17:07.026Z</time></trkpt><trkpt lat="45.6289686" lon="11.3930145"><ele>312.6666666666667</ele><time>2026-04-17T16:17:10.027Z</time></trkpt><trkpt lat="45.6289208" lon="11.3930952"><ele>316.5</ele><time>2026-04-17T16:17:13.027Z</time></trkpt><trkpt lat="45.6288737" lon="11.3931908"><ele>320.3333333333333</ele><time>2026-04-17T16:17:16.026Z</time></trkpt><trkpt lat="45.6288258" lon="11.3932736"><ele>324.16666666666663</ele><time>2026-04-17T16:17:19.027Z</time></trkpt><trkpt lat="45.6287872" lon="11.3933797"><ele>328.0</ele><time>2026-04-17T16:17:22.027Z</time></trkpt><trkpt lat="45.6287357" lon="11.3934767"><ele>328.0</ele><time>2026-04-17T16:17:25.026Z</time></trkpt><trkpt lat="45.6286861" lon="11.3935636"><ele>328.0</ele><time>2026-04-17T16:17:28.027Z</time></trkpt><trkpt lat="45.6286447" lon="11.3936793"><ele>328.0</ele><time>2026-04-17T16:17:31.026Z</time></trkpt><trkpt lat="45.6286186" lon="11.3937741"><ele>328.0</ele><time>2026-04-17T16:17:34.027Z</time></trkpt><trkpt lat="45.6286093" lon="11.3938674"><ele>328.0</ele><time>2026-04-17T16:17:36.027Z</time></trkpt><trkpt lat="45.6286101" lon="11.3939869"><ele>328.0</ele><time>2026-04-17T16:17:38.026Z</time></trkpt><trkpt lat="45.6286191" lon="11.3940791"><ele>329.66666666666663</ele><time>2026-04-17T16:17:40.027Z</time></trkpt><trkpt lat="45.6286772" lon="11.39417"><ele>331.3333333333333</ele><time>2026-04-17T16:17:43.026Z</time></trkpt><trkpt lat="45.6287475" lon="11.3942393"><ele>333.0</ele><time>2026-04-17T16:17:46.027Z</time></trkpt><trkpt lat="45.6288076" lon="11.3942919"><ele>334.6666666666667</ele><time>2026-04-17T16:17:49.026Z</time></trkpt><trkpt lat="45.6288788" lon="11.394339"><ele>336.33333333333337</ele><time>2026-04-17T16:17:53.025Z</time></trkpt><trkpt lat="45.6289328" lon="11.3943925"><ele>338.0</ele><time>2026-04-17T16:17:57.026Z</time></trkpt><trkpt lat="45.6289939" lon="11.394434"><ele>338.0</ele><time>2026-04-17T16:18:01.026Z</time></trkpt><trkpt lat="45.6290481" lon="11.3944811"><ele>338.0</ele><time>2026-04-17T16:18:04.027Z</time></trkpt><trkpt lat="45.6291113" lon="11.3945131"><ele>338.0</ele><time>2026-04-17T16:18:07.027Z</time></trkpt><trkpt lat="45.6291909" lon="11.3945336"><ele>338.0</ele><time>2026-04-17T16:18:10.026Z</time></trkpt><trkpt lat="45.629266" lon="11.3945652"><ele>338.0</ele><time>2026-04-17T16:18:13.026Z</time></trkpt><trkpt lat="45.6293342" lon="11.3946197"><ele>338.0</ele><time>2026-04-17T16:18:16.026Z</time></trkpt><trkpt lat="45.6294241" lon="11.3946699"><ele>339.1666666666667</ele><time>2026-04-17T16:18:19.026Z</time></trkpt><trkpt lat="45.6295097" lon="11.3947272"><ele>340.33333333333337</ele><time>2026-04-17T16:18:22.027Z</time></trkpt><trkpt lat="45.6295943" lon="11.3947738"><ele>341.5</ele><time>2026-04-17T16:18:25.027Z</time></trkpt><trkpt lat="45.6296443" lon="11.3948397"><ele>342.6666666666667</ele><time>2026-04-17T16:18:28.026Z</time></trkpt><trkpt lat="45.6296887" lon="11.3949208"><ele>343.8333333333333</ele><time>2026-04-17T16:18:31.026Z</time></trkpt><trkpt lat="45.6297416" lon="11.3949838"><ele>345.0</ele><time>2026-04-17T16:18:34.027Z</time></trkpt><trkpt lat="45.6297814" lon="11.3950683"><ele>345.0</ele><time>2026-04-17T16:18:37.027Z</time></trkpt><trkpt lat="45.6298086" lon="11.3951547"><ele>345.0</ele><time>2026-04-17T16:18:40.027Z</time></trkpt><trkpt lat="45.6298445" lon="11.3952357"><ele>345.0</ele><time>2026-04-17T16:18:43.027Z</time></trkpt><trkpt lat="45.6298764" lon="11.3953244"><ele>345.0</ele><time>2026-04-17T16:18:47.026Z</time></trkpt><trkpt lat="45.6299074" lon="11.3954161"><ele>345.0</ele><time>2026-04-17T16:18:51.027Z</time></trkpt><trkpt lat="45.6299611" lon="11.3954915"><ele>345.0</ele><time>2026-04-17T16:18:54.026Z</time></trkpt><trkpt lat="45.6300153" lon="11.3955912"><ele>345.0</ele><time>2026-04-17T16:18:57.025Z</time></trkpt><trkpt lat="45.6300408" lon="11.3956873"><ele>342.0</ele><time>2026-04-17T16:19:01.026Z</time></trkpt><trkpt lat="45.6300688" lon="11.3957826"><ele>339.0</ele><time>2026-04-17T16:19:07.027Z</time></trkpt><trkpt lat="45.6300979" lon="11.3958962"><ele>336.0</ele><time>2026-04-17T16:19:11.026Z</time></trkpt><trkpt lat="45.6301315" lon="11.3960171"><ele>333.0</ele><time>2026-04-17T16:19:14.026Z</time></trkpt><trkpt lat="45.6301601" lon="11.3960987"><ele>330.0</ele><time>2026-04-17T16:19:16.027Z</time></trkpt><trkpt lat="45.6301913" lon="11.3961868"><ele>327.0</ele><time>2026-04-17T16:19:18.027Z</time></trkpt><trkpt lat="45.6302303" lon="11.3962981"><ele>325.3333333333333</ele><time>2026-04-17T16:19:21.027Z</time></trkpt><trkpt lat="45.6302633" lon="11.3964247"><ele>323.6666666666667</ele><time>2026-04-17T16:19:24.027Z</time></trkpt><trkpt lat="45.6303081" lon="11.3965172"><ele>322.0</ele><time>2026-04-17T16:19:26.027Z</time></trkpt><trkpt lat="45.6303635" lon="11.396614"><ele>320.33333333333337</ele><time>2026-04-17T16:19:28.026Z</time></trkpt><trkpt lat="45.6304022" lon="11.3967011"><ele>318.6666666666667</ele><time>2026-04-17T16:19:30.026Z</time></trkpt><trkpt lat="45.6304385" lon="11.3967855"><ele>317.0</ele><time>2026-04-17T16:19:32.025Z</time></trkpt><trkpt lat="45.6304882" lon="11.3968628"><ele>323.2857142857143</ele><time>2026-04-17T16:19:34.026Z</time></trkpt><trkpt lat="45.6305478" lon="11.3968933"><ele>329.57142857142856</ele><time>2026-04-17T16:19:36.027Z</time></trkpt><trkpt lat="45.6306172" lon="11.3968892"><ele>335.8571428571429</ele><time>2026-04-17T16:19:38.026Z</time></trkpt><trkpt lat="45.6306833" lon="11.3968888"><ele>342.1428571428571</ele><time>2026-04-17T16:19:40.027Z</time></trkpt><trkpt lat="45.6307629" lon="11.3968622"><ele>348.4285714285714</ele><time>2026-04-17T16:19:43.026Z</time></trkpt><trkpt lat="45.6308425" lon="11.3968515"><ele>354.7142857142857</ele><time>2026-04-17T16:19:46.027Z</time></trkpt><trkpt lat="45.6309087" lon="11.3968736"><ele>361.0</ele><time>2026-04-17T16:19:49.027Z</time></trkpt><trkpt lat="45.6309756" lon="11.3969079"><ele>361.0</ele><time>2026-04-17T16:19:53.027Z</time></trkpt><trkpt lat="45.6310572" lon="11.3969529"><ele>361.0</ele><time>2026-04-17T16:19:57.026Z</time></trkpt><trkpt lat="45.6311667" lon="11.396959"><ele>361.0</ele><time>2026-04-17T16:20:01.026Z</time></trkpt><trkpt lat="45.6312249" lon="11.3970041"><ele>361.0</ele><time>2026-04-17T16:20:04.026Z</time></trkpt><trkpt lat="45.6312884" lon="11.3970732"><ele>361.0</ele><time>2026-04-17T16:20:08.027Z</time></trkpt><trkpt lat="45.6313502" lon="11.3971067"><ele>361.0</ele><time>2026-04-17T16:20:11.026Z</time></trkpt><trkpt lat="45.6314266" lon="11.3971126"><ele>364.16666666666663</ele><time>2026-04-17T16:20:13.027Z</time></trkpt><trkpt lat="45.6315213" lon="11.3971009"><ele>367.3333333333333</ele><time>2026-04-17T16:20:15.026Z</time></trkpt><trkpt lat="45.6316169" lon="11.3970827"><ele>370.5</ele><time>2026-04-17T16:20:17.027Z</time></trkpt><trkpt lat="45.631702" lon="11.3970582"><ele>373.6666666666667</ele><time>2026-04-17T16:20:19.027Z</time></trkpt><trkpt lat="45.6317845" lon="11.3970531"><ele>376.83333333333337</ele><time>2026-04-17T16:20:21.026Z</time></trkpt><trkpt lat="45.6318662" lon="11.3970859"><ele>380.0</ele><time>2026-04-17T16:20:24.026Z</time></trkpt><trkpt lat="45.6319246" lon="11.3971407"><ele>377.7142857142857</ele><time>2026-04-17T16:20:27.027Z</time></trkpt><trkpt lat="45.6319722" lon="11.3972337"><ele>375.42857142857144</ele><time>2026-04-17T16:20:31.026Z</time></trkpt><trkpt lat="45.6320099" lon="11.3973139"><ele>373.1428571428571</ele><time>2026-04-17T16:20:34.026Z</time></trkpt><trkpt lat="45.6320634" lon="11.3974011"><ele>370.8571428571429</ele><time>2026-04-17T16:20:38.027Z</time></trkpt><trkpt lat="45.6321083" lon="11.3974747"><ele>368.57142857142856</ele><time>2026-04-17T16:20:42.027Z</time></trkpt><trkpt lat="45.6321625" lon="11.397522"><ele>366.2857142857143</ele><time>2026-04-17T16:20:45.026Z</time></trkpt><trkpt lat="45.6322321" lon="11.3975395"><ele>364.0</ele><time>2026-04-17T16:20:48.027Z</time></trkpt><trkpt lat="45.6322994" lon="11.397588"><ele>364.0</ele><time>2026-04-17T16:20:52.027Z</time></trkpt><trkpt lat="45.6323633" lon="11.3976251"><ele>364.0</ele><time>2026-04-17T16:20:56.025Z</time></trkpt><trkpt lat="45.6324291" lon="11.3976495"><ele>364.0</ele><time>2026-04-17T16:21:00.025Z</time></trkpt><trkpt lat="45.6324961" lon="11.3976863"><ele>364.0</ele><time>2026-04-17T16:21:04.026Z</time></trkpt><trkpt lat="45.6325567" lon="11.3977204"><ele>364.0</ele><time>2026-04-17T16:21:07.027Z</time></trkpt><trkpt lat="45.6326211" lon="11.3977469"><ele>364.0</ele><time>2026-04-17T16:21:10.027Z</time></trkpt><trkpt lat="45.6326885" lon="11.3977699"><ele>364.0</ele><time>2026-04-17T16:21:13.027Z</time></trkpt><trkpt lat="45.6327583" lon="11.3977971"><ele>364.7142857142857</ele><time>2026-04-17T16:21:16.026Z</time></trkpt><trkpt lat="45.6328105" lon="11.3978548"><ele>365.42857142857144</ele><time>2026-04-17T16:21:19.027Z</time></trkpt><trkpt lat="45.6328672" lon="11.3979335"><ele>366.1428571428571</ele><time>2026-04-17T16:21:23.027Z</time></trkpt><trkpt lat="45.6329151" lon="11.3979935"><ele>366.8571428571429</ele><time>2026-04-17T16:21:26.026Z</time></trkpt><trkpt lat="45.6329668" lon="11.398049"><ele>367.57142857142856</ele><time>2026-04-17T16:21:29.026Z</time></trkpt><trkpt lat="45.6330244" lon="11.3980854"><ele>368.2857142857143</ele><time>2026-04-17T16:21:32.027Z</time></trkpt><trkpt lat="45.6330894" lon="11.3981462"><ele>369.0</ele><time>2026-04-17T16:21:36.026Z</time></trkpt><trkpt lat="45.6331482" lon="11.3982073"><ele>369.0</ele><time>2026-04-17T16:21:40.026Z</time></trkpt><trkpt lat="45.6332013" lon="11.3982702"><ele>369.0</ele><time>2026-04-17T16:21:45.026Z</time></trkpt><trkpt lat="45.6332333" lon="11.3983576"><ele>369.0</ele><time>2026-04-17T16:21:51.027Z</time></trkpt><trkpt lat="45.6332718" lon="11.3984311"><ele>369.0</ele><time>2026-04-17T16:21:55.027Z</time></trkpt><trkpt lat="45.6333119" lon="11.3985033"><ele>369.0</ele><time>2026-04-17T16:21:59.025Z</time></trkpt><trkpt lat="45.6333745" lon="11.398539"><ele>369.0</ele><time>2026-04-17T16:22:03.027Z</time></trkpt><trkpt lat="45.6334296" lon="11.3986053"><ele>369.0</ele><time>2026-04-17T16:22:07.026Z</time></trkpt><trkpt lat="45.6334842" lon="11.3986589"><ele>369.0</ele><time>2026-04-17T16:22:11.027Z</time></trkpt><trkpt lat="45.633511" lon="11.3987528"><ele>369.0</ele><time>2026-04-17T16:22:14.026Z</time></trkpt><trkpt lat="45.6335581" lon="11.3988183"><ele>369.0</ele><time>2026-04-17T16:22:17.026Z</time></trkpt><trkpt lat="45.6336122" lon="11.3988699"><ele>369.0</ele><time>2026-04-17T16:22:20.025Z</time></trkpt><trkpt lat="45.633673" lon="11.3989164"><ele>369.0</ele><time>2026-04-17T16:22:23.026Z</time></trkpt><trkpt lat="45.6337199" lon="11.3989963"><ele>369.0</ele><time>2026-04-17T16:22:26.025Z</time></trkpt><trkpt lat="45.633779" lon="11.3990526"><ele>369.0</ele><time>2026-04-17T16:22:30.027Z</time></trkpt><trkpt lat="45.6338318" lon="11.3991042"><ele>371.57142857142856</ele><time>2026-04-17T16:22:34.026Z</time></trkpt><trkpt lat="45.6338738" lon="11.3992014"><ele>374.1428571428571</ele><time>2026-04-17T16:22:39.027Z</time></trkpt><trkpt lat="45.6339115" lon="11.3992792"><ele>376.7142857142857</ele><time>2026-04-17T16:22:43.027Z</time></trkpt><trkpt lat="45.6339569" lon="11.3993566"><ele>379.2857142857143</ele><time>2026-04-17T16:22:47.027Z</time></trkpt><trkpt lat="45.6340242" lon="11.3993697"><ele>381.8571428571429</ele><time>2026-04-17T16:22:50.027Z</time></trkpt><trkpt lat="45.6340856" lon="11.3993928"><ele>384.42857142857144</ele><time>2026-04-17T16:22:53.026Z</time></trkpt><trkpt lat="45.6341526" lon="11.3994317"><ele>387.0</ele><time>2026-04-17T16:22:57.027Z</time></trkpt><trkpt lat="45.6342272" lon="11.3994433"><ele>387.0</ele><time>2026-04-17T16:23:01.027Z</time></trkpt><trkpt lat="45.6342989" lon="11.3994138"><ele>387.0</ele><time>2026-04-17T16:23:05.027Z</time></trkpt><trkpt lat="45.634379" lon="11.3994294"><ele>387.0</ele><time>2026-04-17T16:23:09.026Z</time></trkpt><trkpt lat="45.634439" lon="11.399475"><ele>387.0</ele><time>2026-04-17T16:23:16.027Z</time></trkpt><trkpt lat="45.634578" lon="11.3995071"><ele>387.0</ele><time>2026-04-17T16:23:25.027Z</time></trkpt><trkpt lat="45.6346741" lon="11.399541"><ele>386.3333333333333</ele><time>2026-04-17T16:23:30.027Z</time></trkpt><trkpt lat="45.634847" lon="11.3995438"><ele>385.6666666666667</ele><time>2026-04-17T16:23:38.026Z</time></trkpt><trkpt lat="45.6349003" lon="11.3995938"><ele>385.0</ele><time>2026-04-17T16:23:42.026Z</time></trkpt><trkpt lat="45.6349642" lon="11.3996477"><ele>384.33333333333337</ele><time>2026-04-17T16:23:46.026Z</time></trkpt><trkpt lat="45.6350306" lon="11.3996875"><ele>383.6666666666667</ele><time>2026-04-17T16:23:50.027Z</time></trkpt><trkpt lat="45.6350884" lon="11.3997284"><ele>383.0</ele><time>2026-04-17T16:23:53.027Z</time></trkpt><trkpt lat="45.6351556" lon="11.3997683"><ele>383.0</ele><time>2026-04-17T16:23:56.026Z</time></trkpt><trkpt lat="45.6352196" lon="11.3998091"><ele>383.0</ele><time>2026-04-17T16:23:59.025Z</time></trkpt><trkpt lat="45.6352821" lon="11.399842"><ele>383.0</ele><time>2026-04-17T16:24:02.026Z</time></trkpt><trkpt lat="45.6353569" lon="11.3998749"><ele>383.0</ele><time>2026-04-17T16:24:06.027Z</time></trkpt><trkpt lat="45.6354298" lon="11.3998691"><ele>383.0</ele><time>2026-04-17T16:24:09.026Z</time></trkpt><trkpt lat="45.635498" lon="11.3998453"><ele>383.0</ele><time>2026-04-17T16:24:12.026Z</time></trkpt><trkpt lat="45.6355715" lon="11.3998265"><ele>383.0</ele><time>2026-04-17T16:24:15.026Z</time></trkpt><trkpt lat="45.6356535" lon="11.3998424"><ele>384.0</ele><time>2026-04-17T16:24:18.026Z</time></trkpt><trkpt lat="45.6357169" lon="11.3998811"><ele>385.0</ele><time>2026-04-17T16:24:21.027Z</time></trkpt><trkpt lat="45.6357553" lon="11.3999744"><ele>386.0</ele><time>2026-04-17T16:24:25.027Z</time></trkpt><trkpt lat="45.6357449" lon="11.4000796"><ele>387.0</ele><time>2026-04-17T16:24:29.026Z</time></trkpt><trkpt lat="45.6357775" lon="11.4001715"><ele>388.0</ele><time>2026-04-17T16:24:33.027Z</time></trkpt><trkpt lat="45.6357906" lon="11.4002619"><ele>389.0</ele><time>2026-04-17T16:24:40.027Z</time></trkpt><trkpt lat="45.6357551" lon="11.4003494"><ele>390.0</ele><time>2026-04-17T16:25:27.027Z</time></trkpt><trkpt lat="45.6357326" lon="11.4005103"><ele>390.0</ele><time>2026-04-17T16:25:30.027Z</time></trkpt><trkpt lat="45.6357312" lon="11.4007727"><ele>390.0</ele><time>2026-04-17T16:25:32.026Z</time></trkpt><trkpt lat="45.6357417" lon="11.4008986"><ele>390.0</ele><time>2026-04-17T16:25:33.026Z</time></trkpt><trkpt lat="45.6357416" lon="11.4010101"><ele>390.0</ele><time>2026-04-17T16:25:34.027Z</time></trkpt><trkpt lat="45.6357372" lon="11.4011117"><ele>390.0</ele><time>2026-04-17T16:25:35.025Z</time></trkpt><trkpt lat="45.6357923" lon="11.4012272"><ele>390.0</ele><time>2026-04-17T16:25:36.025Z</time></trkpt><trkpt lat="45.6358529" lon="11.4013273"><ele>390.0</ele><time>2026-04-17T16:25:37.027Z</time></trkpt><trkpt lat="45.6359113" lon="11.4014193"><ele>390.0</ele><time>2026-04-17T16:25:38.027Z</time></trkpt><trkpt lat="45.6360462" lon="11.4015162"><ele>390.0</ele><time>2026-04-17T16:25:40.027Z</time></trkpt><trkpt lat="45.636161" lon="11.4016027"><ele>388.0</ele><time>2026-04-17T16:25:41.026Z</time></trkpt><trkpt lat="45.6362551" lon="11.4016618"><ele>386.0</ele><time>2026-04-17T16:25:42.026Z</time></trkpt><trkpt lat="45.6363786" lon="11.4017246"><ele>384.0</ele><time>2026-04-17T16:25:43.026Z</time></trkpt><trkpt lat="45.6364498" lon="11.4017837"><ele>382.0</ele><time>2026-04-17T16:25:44.026Z</time></trkpt><trkpt lat="45.6365167" lon="11.4019053"><ele>380.0</ele><time>2026-04-17T16:25:45.027Z</time></trkpt><trkpt lat="45.6365919" lon="11.4020134"><ele>380.0</ele><time>2026-04-17T16:25:46.027Z</time></trkpt><trkpt lat="45.6366516" lon="11.402093"><ele>380.0</ele><time>2026-04-17T16:25:47.025Z</time></trkpt><trkpt lat="45.6367001" lon="11.4022302"><ele>380.0</ele><time>2026-04-17T16:25:48.026Z</time></trkpt><trkpt lat="45.6367314" lon="11.402387"><ele>380.0</ele><time>2026-04-17T16:25:49.027Z</time></trkpt><trkpt lat="45.6367815" lon="11.4025405"><ele>380.0</ele><time>2026-04-17T16:25:50.027Z</time></trkpt><trkpt lat="45.6368068" lon="11.4027161"><ele>378.75</ele><time>2026-04-17T16:25:51.027Z</time></trkpt><trkpt lat="45.6368224" lon="11.4028863"><ele>377.5</ele><time>2026-04-17T16:25:52.027Z</time></trkpt><trkpt lat="45.6368312" lon="11.4030484"><ele>376.25</ele><time>2026-04-17T16:25:53.027Z</time></trkpt><trkpt lat="45.6368335" lon="11.4032172"><ele>375.0</ele><time>2026-04-17T16:25:54.026Z</time></trkpt><trkpt lat="45.6368381" lon="11.4033676"><ele>373.0</ele><time>2026-04-17T16:25:55.026Z</time></trkpt><trkpt lat="45.6368378" lon="11.4035226"><ele>371.0</ele><time>2026-04-17T16:25:56.027Z</time></trkpt><trkpt lat="45.6368377" lon="11.4037119"><ele>369.0</ele><time>2026-04-17T16:25:57.026Z</time></trkpt><trkpt lat="45.636835" lon="11.4038879"><ele>367.0</ele><time>2026-04-17T16:25:58.026Z</time></trkpt><trkpt lat="45.6368467" lon="11.4040668"><ele>365.5</ele><time>2026-04-17T16:25:59.027Z</time></trkpt><trkpt lat="45.6368862" lon="11.4042757"><ele>364.0</ele><time>2026-04-17T16:26:00.027Z</time></trkpt><trkpt lat="45.6368908" lon="11.4044476"><ele>362.5</ele><time>2026-04-17T16:26:01.027Z</time></trkpt><trkpt lat="45.6369587" lon="11.404589"><ele>361.0</ele><time>2026-04-17T16:26:02.027Z</time></trkpt><trkpt lat="45.6369996" lon="11.4047587"><ele>361.0</ele><time>2026-04-17T16:26:03.027Z</time></trkpt><trkpt lat="45.6370202" lon="11.4048749"><ele>361.0</ele><time>2026-04-17T16:26:04.026Z</time></trkpt><trkpt lat="45.637062" lon="11.4050449"><ele>361.0</ele><time>2026-04-17T16:26:05.027Z</time></trkpt><trkpt lat="45.6371001" lon="11.4051927"><ele>361.0</ele><time>2026-04-17T16:26:06.026Z</time></trkpt><trkpt lat="45.6371453" lon="11.4053731"><ele>361.0</ele><time>2026-04-17T16:26:07.027Z</time></trkpt><trkpt lat="45.6372108" lon="11.4054743"><ele>361.0</ele><time>2026-04-17T16:26:08.025Z</time></trkpt><trkpt lat="45.6372337" lon="11.4055855"><ele>361.0</ele><time>2026-04-17T16:26:09.026Z</time></trkpt><trkpt lat="45.6373903" lon="11.4056207"><ele>361.0</ele><time>2026-04-17T16:26:11.027Z</time></trkpt><trkpt lat="45.6374936" lon="11.4056574"><ele>361.0</ele><time>2026-04-17T16:26:12.026Z</time></trkpt><trkpt lat="45.6376355" lon="11.4056359"><ele>356.6</ele><time>2026-04-17T16:26:13.027Z</time></trkpt><trkpt lat="45.637768" lon="11.4056297"><ele>352.20000000000005</ele><time>2026-04-17T16:26:14.027Z</time></trkpt><trkpt lat="45.6378875" lon="11.4056457"><ele>347.79999999999995</ele><time>2026-04-17T16:26:15.025Z</time></trkpt><trkpt lat="45.6379513" lon="11.405688"><ele>343.4</ele><time>2026-04-17T16:26:16.027Z</time></trkpt><trkpt lat="45.6380191" lon="11.4057289"><ele>339.0</ele><time>2026-04-17T16:26:17.025Z</time></trkpt><trkpt lat="45.6381039" lon="11.4057519"><ele>338.0</ele><time>2026-04-17T16:26:18.026Z</time></trkpt><trkpt lat="45.6382058" lon="11.4058016"><ele>337.0</ele><time>2026-04-17T16:26:19.026Z</time></trkpt><trkpt lat="45.6383101" lon="11.4058415"><ele>336.0</ele><time>2026-04-17T16:26:20.026Z</time></trkpt><trkpt lat="45.6383344" lon="11.4059413"><ele>335.0</ele><time>2026-04-17T16:26:21.026Z</time></trkpt><trkpt lat="45.6384179" lon="11.4059763"><ele>334.0</ele><time>2026-04-17T16:26:22.026Z</time></trkpt><trkpt lat="45.6385054" lon="11.4060001"><ele>334.0</ele><time>2026-04-17T16:26:23.027Z</time></trkpt><trkpt lat="45.6386165" lon="11.4060433"><ele>334.0</ele><time>2026-04-17T16:26:24.027Z</time></trkpt><trkpt lat="45.6386997" lon="11.4060811"><ele>334.0</ele><time>2026-04-17T16:26:25.027Z</time></trkpt><trkpt lat="45.6388251" lon="11.4061395"><ele>334.0</ele><time>2026-04-17T16:26:26.027Z</time></trkpt><trkpt lat="45.6389188" lon="11.4061156"><ele>334.0</ele><time>2026-04-17T16:26:27.026Z</time></trkpt><trkpt lat="45.6390327" lon="11.406151"><ele>334.16666666666663</ele><time>2026-04-17T16:26:29.025Z</time></trkpt><trkpt lat="45.6391049" lon="11.4061728"><ele>334.3333333333333</ele><time>2026-04-17T16:26:30.026Z</time></trkpt><trkpt lat="45.6391925" lon="11.4061759"><ele>334.5</ele><time>2026-04-17T16:26:31.026Z</time></trkpt><trkpt lat="45.6392839" lon="11.4061797"><ele>334.6666666666667</ele><time>2026-04-17T16:26:32.027Z</time></trkpt><trkpt lat="45.6393612" lon="11.4062308"><ele>334.83333333333337</ele><time>2026-04-17T16:26:33.026Z</time></trkpt><trkpt lat="45.6394592" lon="11.4062216"><ele>335.0</ele><time>2026-04-17T16:26:34.027Z</time></trkpt><trkpt lat="45.6395646" lon="11.4062007"><ele>334.0</ele><time>2026-04-17T16:26:35.026Z</time></trkpt><trkpt lat="45.6396733" lon="11.4062143"><ele>333.0</ele><time>2026-04-17T16:26:36.027Z</time></trkpt><trkpt lat="45.6397938" lon="11.4062259"><ele>332.0</ele><time>2026-04-17T16:26:37.026Z</time></trkpt><trkpt lat="45.639913" lon="11.4062358"><ele>331.0</ele><time>2026-04-17T16:26:38.027Z</time></trkpt><trkpt lat="45.6400229" lon="11.4062477"><ele>331.0</ele><time>2026-04-17T16:26:39.027Z</time></trkpt><trkpt lat="45.6401241" lon="11.4062741"><ele>331.0</ele><time>2026-04-17T16:26:40.027Z</time></trkpt><trkpt lat="45.6402421" lon="11.4063195"><ele>331.0</ele><time>2026-04-17T16:26:41.026Z</time></trkpt><trkpt lat="45.6403463" lon="11.4063542"><ele>331.0</ele><time>2026-04-17T16:26:42.026Z</time></trkpt><trkpt lat="45.6404373" lon="11.4064039"><ele>331.0</ele><time>2026-04-17T16:26:43.027Z</time></trkpt><trkpt lat="45.640536" lon="11.4064127"><ele>326.0</ele><time>2026-04-17T16:26:44.026Z</time></trkpt><trkpt lat="45.6406338" lon="11.4064485"><ele>321.0</ele><time>2026-04-17T16:26:45.026Z</time></trkpt><trkpt lat="45.6407263" lon="11.4064002"><ele>316.0</ele><time>2026-04-17T16:26:46.027Z</time></trkpt><trkpt lat="45.6408386" lon="11.4063726"><ele>311.0</ele><time>2026-04-17T16:26:47.025Z</time></trkpt><trkpt lat="45.6409339" lon="11.4063312"><ele>306.0</ele><time>2026-04-17T16:26:48.027Z</time></trkpt><trkpt lat="45.6410246" lon="11.4063432"><ele>309.4</ele><time>2026-04-17T16:26:49.026Z</time></trkpt><trkpt lat="45.6411298" lon="11.4063145"><ele>312.8</ele><time>2026-04-17T16:26:50.027Z</time></trkpt><trkpt lat="45.641236" lon="11.4062825"><ele>316.2</ele><time>2026-04-17T16:26:51.027Z</time></trkpt><trkpt lat="45.6413374" lon="11.4062595"><ele>319.59999999999997</ele><time>2026-04-17T16:26:52.026Z</time></trkpt><trkpt lat="45.6414215" lon="11.4062149"><ele>323.0</ele><time>2026-04-17T16:26:53.027Z</time></trkpt><trkpt lat="45.6415148" lon="11.4061871"><ele>323.0</ele><time>2026-04-17T16:26:54.027Z</time></trkpt><trkpt lat="45.6416287" lon="11.4061223"><ele>323.0</ele><time>2026-04-17T16:26:55.027Z</time></trkpt><trkpt lat="45.6417386" lon="11.4060867"><ele>323.0</ele><time>2026-04-17T16:26:56.026Z</time></trkpt><trkpt lat="45.6418481" lon="11.4060298"><ele>323.0</ele><time>2026-04-17T16:26:57.027Z</time></trkpt><trkpt lat="45.641946" lon="11.4059942"><ele>321.0</ele><time>2026-04-17T16:26:58.026Z</time></trkpt><trkpt lat="45.6420319" lon="11.4059938"><ele>319.0</ele><time>2026-04-17T16:26:59.028Z</time></trkpt><trkpt lat="45.6421394" lon="11.4059811"><ele>317.0</ele><time>2026-04-17T16:27:00.026Z</time></trkpt><trkpt lat="45.6422405" lon="11.4059939"><ele>315.0</ele><time>2026-04-17T16:27:01.027Z</time></trkpt><trkpt lat="45.6423251" lon="11.4060104"><ele>313.0</ele><time>2026-04-17T16:27:02.027Z</time></trkpt><trkpt lat="45.6424139" lon="11.4059966"><ele>313.0</ele><time>2026-04-17T16:27:03.025Z</time></trkpt><trkpt lat="45.6425344" lon="11.4059787"><ele>313.0</ele><time>2026-04-17T16:27:04.027Z</time></trkpt><trkpt lat="45.6426352" lon="11.405954"><ele>313.0</ele><time>2026-04-17T16:27:05.027Z</time></trkpt><trkpt lat="45.6427237" lon="11.405919"><ele>313.0</ele><time>2026-04-17T16:27:06.026Z</time></trkpt><trkpt lat="45.6428258" lon="11.4058796"><ele>313.0</ele><time>2026-04-17T16:27:07.026Z</time></trkpt><trkpt lat="45.6429324" lon="11.405875"><ele>310.8</ele><time>2026-04-17T16:27:08.027Z</time></trkpt><trkpt lat="45.643021" lon="11.4058542"><ele>308.6</ele><time>2026-04-17T16:27:09.027Z</time></trkpt><trkpt lat="45.6431241" lon="11.4058498"><ele>306.4</ele><time>2026-04-17T16:27:10.027Z</time></trkpt><trkpt lat="45.6432169" lon="11.4059041"><ele>304.2</ele><time>2026-04-17T16:27:11.026Z</time></trkpt><trkpt lat="45.6433067" lon="11.40596"><ele>302.0</ele><time>2026-04-17T16:27:12.027Z</time></trkpt><trkpt lat="45.6433635" lon="11.4060214"><ele>302.0</ele><time>2026-04-17T16:27:13.027Z</time></trkpt><trkpt lat="45.6434286" lon="11.4062026"><ele>302.0</ele><time>2026-04-17T16:27:14.026Z</time></trkpt><trkpt lat="45.6434973" lon="11.4063204"><ele>302.0</ele><time>2026-04-17T16:27:15.026Z</time></trkpt><trkpt lat="45.6435745" lon="11.4064739"><ele>302.0</ele><time>2026-04-17T16:27:16.026Z</time></trkpt><trkpt lat="45.6436133" lon="11.4065809"><ele>297.75</ele><time>2026-04-17T16:27:17.027Z</time></trkpt><trkpt lat="45.6437113" lon="11.4066969"><ele>293.5</ele><time>2026-04-17T16:27:18.025Z</time></trkpt><trkpt lat="45.6437717" lon="11.4068272"><ele>289.25</ele><time>2026-04-17T16:27:19.027Z</time></trkpt><trkpt lat="45.6438777" lon="11.4068724"><ele>285.0</ele><time>2026-04-17T16:27:20.026Z</time></trkpt><trkpt lat="45.6439741" lon="11.40693"><ele>285.0</ele><time>2026-04-17T16:27:21.026Z</time></trkpt><trkpt lat="45.6440819" lon="11.4070274"><ele>285.0</ele><time>2026-04-17T16:27:22.027Z</time></trkpt><trkpt lat="45.644147" lon="11.4071126"><ele>285.0</ele><time>2026-04-17T16:27:23.026Z</time></trkpt><trkpt lat="45.6442381" lon="11.4072025"><ele>285.0</ele><time>2026-04-17T16:27:24.026Z</time></trkpt><trkpt lat="45.6443134" lon="11.4072615"><ele>285.0</ele><time>2026-04-17T16:27:25.026Z</time></trkpt><trkpt lat="45.6443873" lon="11.4072914"><ele>281.5</ele><time>2026-04-17T16:27:26.026Z</time></trkpt><trkpt lat="45.6444797" lon="11.4073655"><ele>278.0</ele><time>2026-04-17T16:27:27.026Z</time></trkpt><trkpt lat="45.6445741" lon="11.407414"><ele>274.5</ele><time>2026-04-17T16:27:28.026Z</time></trkpt><trkpt lat="45.6446754" lon="11.4073446"><ele>271.0</ele><time>2026-04-17T16:27:29.027Z</time></trkpt><trkpt lat="45.6447829" lon="11.4072335"><ele>270.40000000000003</ele><time>2026-04-17T16:27:30.027Z</time></trkpt><trkpt lat="45.644891" lon="11.4071355"><ele>269.8</ele><time>2026-04-17T16:27:31.027Z</time></trkpt><trkpt lat="45.6449868" lon="11.4070768"><ele>269.20000000000005</ele><time>2026-04-17T16:27:32.027Z</time></trkpt><trkpt lat="45.6450574" lon="11.40704"><ele>268.6</ele><time>2026-04-17T16:27:33.027Z</time></trkpt><trkpt lat="45.6451776" lon="11.4070465"><ele>268.0</ele><time>2026-04-17T16:27:35.027Z</time></trkpt><trkpt lat="45.645247" lon="11.4070619"><ele>264.4</ele><time>2026-04-17T16:27:36.027Z</time></trkpt><trkpt lat="45.6453365" lon="11.4070318"><ele>260.8</ele><time>2026-04-17T16:27:37.027Z</time></trkpt><trkpt lat="45.6453742" lon="11.407125"><ele>257.2</ele><time>2026-04-17T16:27:38.027Z</time></trkpt><trkpt lat="45.6454134" lon="11.407245"><ele>253.6</ele><time>2026-04-17T16:27:40.027Z</time></trkpt><trkpt lat="45.6454798" lon="11.4074507"><ele>250.0</ele><time>2026-04-17T16:27:43.027Z</time></trkpt><trkpt lat="45.6455166" lon="11.4073088"><ele>249.99999999999997</ele><time>2026-04-17T16:27:44.027Z</time></trkpt><trkpt lat="45.6455634" lon="11.4071908"><ele>250.0</ele><time>2026-04-17T16:27:46.026Z</time></trkpt><trkpt lat="45.6455727" lon="11.4070627"><ele>250.0</ele><time>2026-04-17T16:27:47.027Z</time></trkpt><trkpt lat="45.6456171" lon="11.4069479"><ele>250.0</ele><time>2026-04-17T16:27:48.026Z</time></trkpt><trkpt lat="45.6456589" lon="11.4068353"><ele>249.99999999999997</ele><time>2026-04-17T16:27:49.025Z</time></trkpt><trkpt lat="45.6457081" lon="11.4067435"><ele>250.0</ele><time>2026-04-17T16:27:50.027Z</time></trkpt><trkpt lat="45.6457698" lon="11.4066579"><ele>250.0</ele><time>2026-04-17T16:27:51.025Z</time></trkpt><trkpt lat="45.6458446" lon="11.4065604"><ele>250.0</ele><time>2026-04-17T16:27:52.027Z</time></trkpt><trkpt lat="45.6459249" lon="11.4064549"><ele>250.0</ele><time>2026-04-17T16:27:53.027Z</time></trkpt><trkpt lat="45.6460201" lon="11.4063864"><ele>250.0</ele><time>2026-04-17T16:27:54.027Z</time></trkpt><trkpt lat="45.646063" lon="11.4062955"><ele>250.0</ele><time>2026-04-17T16:27:55.027Z</time></trkpt><trkpt lat="45.646126" lon="11.406212"><ele>249.4</ele><time>2026-04-17T16:27:56.025Z</time></trkpt><trkpt lat="45.6461942" lon="11.4061185"><ele>248.8</ele><time>2026-04-17T16:27:57.027Z</time></trkpt><trkpt lat="45.646275" lon="11.4060334"><ele>248.2</ele><time>2026-04-17T16:27:58.027Z</time></trkpt><trkpt lat="45.6463596" lon="11.4059644"><ele>247.6</ele><time>2026-04-17T16:27:59.027Z</time></trkpt><trkpt lat="45.6464413" lon="11.4059079"><ele>247.0</ele><time>2026-04-17T16:28:00.026Z</time></trkpt><trkpt lat="45.6465421" lon="11.405961"><ele>247.0</ele><time>2026-04-17T16:28:01.027Z</time></trkpt><trkpt lat="45.646623" lon="11.4059394"><ele>247.0</ele><time>2026-04-17T16:28:02.026Z</time></trkpt><trkpt lat="45.6467224" lon="11.4059971"><ele>247.0</ele><time>2026-04-17T16:28:03.027Z</time></trkpt><trkpt lat="45.6468146" lon="11.4059976"><ele>247.0</ele><time>2026-04-17T16:28:04.026Z</time></trkpt><trkpt lat="45.6469032" lon="11.4059931"><ele>247.0</ele><time>2026-04-17T16:28:05.027Z</time></trkpt><trkpt lat="45.6469931" lon="11.4059462"><ele>241.25</ele><time>2026-04-17T16:28:06.027Z</time></trkpt><trkpt lat="45.6471027" lon="11.4058704"><ele>235.5</ele><time>2026-04-17T16:28:07.026Z</time></trkpt><trkpt lat="45.6472111" lon="11.40583"><ele>229.75</ele><time>2026-04-17T16:28:08.027Z</time></trkpt><trkpt lat="45.6473374" lon="11.4057947"><ele>224.0</ele><time>2026-04-17T16:28:09.026Z</time></trkpt><trkpt lat="45.6474501" lon="11.405747"><ele>224.0</ele><time>2026-04-17T16:28:10.027Z</time></trkpt><trkpt lat="45.6475734" lon="11.4057212"><ele>224.0</ele><time>2026-04-17T16:28:11.026Z</time></trkpt><trkpt lat="45.6476795" lon="11.405681"><ele>224.0</ele><time>2026-04-17T16:28:12.027Z</time></trkpt><trkpt lat="45.647792" lon="11.4056185"><ele>224.0</ele><time>2026-04-17T16:28:13.026Z</time></trkpt><trkpt lat="45.6479005" lon="11.405566"><ele>222.66666666666669</ele><time>2026-04-17T16:28:14.027Z</time></trkpt><trkpt lat="45.6479939" lon="11.4054833"><ele>221.33333333333334</ele><time>2026-04-17T16:28:15.026Z</time></trkpt><trkpt lat="45.6480754" lon="11.4054186"><ele>220.0</ele><time>2026-04-17T16:28:16.027Z</time></trkpt><trkpt lat="45.6481689" lon="11.4053583"><ele>218.66666666666669</ele><time>2026-04-17T16:28:17.026Z</time></trkpt><trkpt lat="45.648218" lon="11.4052863"><ele>217.33333333333334</ele><time>2026-04-17T16:28:18.026Z</time></trkpt><trkpt lat="45.6482714" lon="11.4052198"><ele>216.0</ele><time>2026-04-17T16:28:19.027Z</time></trkpt><trkpt lat="45.6483104" lon="11.4051488"><ele>216.0</ele><time>2026-04-17T16:28:20.025Z</time></trkpt><trkpt lat="45.6483939" lon="11.4051676"><ele>216.00000000000003</ele><time>2026-04-17T16:28:22.026Z</time></trkpt><trkpt lat="45.6483321" lon="11.4049402"><ele>216.00000000000003</ele><time>2026-04-17T16:28:23.027Z</time></trkpt><trkpt lat="45.6482657" lon="11.4050853"><ele>216.0</ele><time>2026-04-17T16:28:27.026Z</time></trkpt><trkpt lat="45.6482225" lon="11.4051698"><ele>216.0</ele><time>2026-04-17T16:28:29.026Z</time></trkpt><trkpt lat="45.6482241" lon="11.4054287"><ele>211.5</ele><time>2026-04-17T16:28:31.026Z</time></trkpt><trkpt lat="45.6482901" lon="11.4055802"><ele>207.0</ele><time>2026-04-17T16:28:32.026Z</time></trkpt><trkpt lat="45.6484" lon="11.4056094"><ele>202.5</ele><time>2026-04-17T16:28:34.026Z</time></trkpt><trkpt lat="45.6484986" lon="11.4056245"><ele>198.0</ele><time>2026-04-17T16:28:35.026Z</time></trkpt><trkpt lat="45.6486174" lon="11.405611"><ele>193.0</ele><time>2026-04-17T16:28:36.026Z</time></trkpt><trkpt lat="45.6488588" lon="11.4055946"><ele>188.0</ele><time>2026-04-17T16:28:38.026Z</time></trkpt><trkpt lat="45.6489578" lon="11.405629"><ele>183.0</ele><time>2026-04-17T16:28:39.027Z</time></trkpt><trkpt lat="45.6490514" lon="11.4057106"><ele>183.0</ele><time>2026-04-17T16:28:40.026Z</time></trkpt><trkpt lat="45.6491806" lon="11.4057995"><ele>183.0</ele><time>2026-04-17T16:28:41.026Z</time></trkpt><trkpt lat="45.6492893" lon="11.4059181"><ele>183.0</ele><time>2026-04-17T16:28:42.026Z</time></trkpt><trkpt lat="45.6493952" lon="11.406053"><ele>183.0</ele><time>2026-04-17T16:28:43.027Z</time></trkpt><trkpt lat="45.6494738" lon="11.4062108"><ele>180.0</ele><time>2026-04-17T16:28:44.026Z</time></trkpt><trkpt lat="45.6495667" lon="11.4063417"><ele>177.0</ele><time>2026-04-17T16:28:45.027Z</time></trkpt><trkpt lat="45.6496372" lon="11.406483"><ele>174.0</ele><time>2026-04-17T16:28:46.027Z</time></trkpt><trkpt lat="45.649722" lon="11.4066253"><ele>171.0</ele><time>2026-04-17T16:28:47.027Z</time></trkpt><trkpt lat="45.6498057" lon="11.4067689"><ele>171.0</ele><time>2026-04-17T16:28:48.026Z</time></trkpt><trkpt lat="45.6498731" lon="11.4068976"><ele>171.0</ele><time>2026-04-17T16:28:49.027Z</time></trkpt><trkpt lat="45.649938" lon="11.4070428"><ele>171.0</ele><time>2026-04-17T16:28:50.026Z</time></trkpt><trkpt lat="45.6500142" lon="11.4071981"><ele>171.0</ele><time>2026-04-17T16:28:51.027Z</time></trkpt><trkpt lat="45.6500717" lon="11.4073388"><ele>171.57142857142856</ele><time>2026-04-17T16:28:52.026Z</time></trkpt><trkpt lat="45.6500639" lon="11.4074487"><ele>172.14285714285714</ele><time>2026-04-17T16:28:53.027Z</time></trkpt><trkpt lat="45.6500672" lon="11.4075655"><ele>172.71428571428572</ele><time>2026-04-17T16:28:54.026Z</time></trkpt><trkpt lat="45.6500614" lon="11.4076765"><ele>173.28571428571428</ele><time>2026-04-17T16:28:55.027Z</time></trkpt><trkpt lat="45.6500562" lon="11.4077726"><ele>173.85714285714286</ele><time>2026-04-17T16:28:56.026Z</time></trkpt><trkpt lat="45.6500581" lon="11.4078739"><ele>174.42857142857142</ele><time>2026-04-17T16:28:57.026Z</time></trkpt><trkpt lat="45.6500458" lon="11.4079725"><ele>175.0</ele><time>2026-04-17T16:28:58.027Z</time></trkpt><trkpt lat="45.6500437" lon="11.4081673"><ele>175.0</ele><time>2026-04-17T16:29:00.027Z</time></trkpt><trkpt lat="45.6500364" lon="11.4082723"><ele>175.0</ele><time>2026-04-17T16:29:01.026Z</time></trkpt><trkpt lat="45.6500262" lon="11.4083802"><ele>175.0</ele><time>2026-04-17T16:29:02.025Z</time></trkpt><trkpt lat="45.6500308" lon="11.4084924"><ele>175.0</ele><time>2026-04-17T16:29:03.026Z</time></trkpt><trkpt lat="45.650007" lon="11.4086832"><ele>175.0</ele><time>2026-04-17T16:29:05.026Z</time></trkpt><trkpt lat="45.6500462" lon="11.4088331"><ele>175.0</ele><time>2026-04-17T16:29:06.027Z</time></trkpt><trkpt lat="45.6500656" lon="11.408942"><ele>175.0</ele><time>2026-04-17T16:29:07.027Z</time></trkpt><trkpt lat="45.6500081" lon="11.409037"><ele>175.0</ele><time>2026-04-17T16:29:09.027Z</time></trkpt><trkpt lat="45.6499867" lon="11.4091468"><ele>175.0</ele><time>2026-04-17T16:29:11.025Z</time></trkpt><trkpt lat="45.6499612" lon="11.4092422"><ele>175.0</ele><time>2026-04-17T16:29:13.027Z</time></trkpt><trkpt lat="45.6499038" lon="11.4092987"><ele>175.0</ele><time>2026-04-17T16:29:16.027Z</time></trkpt><trkpt lat="45.6498338" lon="11.4093335"><ele>175.0</ele><time>2026-04-17T16:29:17.026Z</time></trkpt><trkpt lat="45.6497743" lon="11.4093876"><ele>175.0</ele><time>2026-04-17T16:29:19.027Z</time></trkpt><trkpt lat="45.6497003" lon="11.4094911"><ele>175.0</ele><time>2026-04-17T16:29:21.026Z</time></trkpt><trkpt lat="45.6497018" lon="11.4096173"><ele>175.0</ele><time>2026-04-17T16:29:23.027Z</time></trkpt><trkpt lat="45.6497174" lon="11.4097417"><ele>175.0</ele><time>2026-04-17T16:29:24.026Z</time></trkpt><trkpt lat="45.6497018" lon="11.4098339"><ele>175.0</ele><time>2026-04-17T16:29:28.027Z</time></trkpt><trkpt lat="45.6496725" lon="11.4099588"><ele>173.8</ele><time>2026-04-17T16:29:42.026Z</time></trkpt><trkpt lat="45.6497542" lon="11.4099731"><ele>172.6</ele><time>2026-04-17T16:29:45.027Z</time></trkpt><trkpt lat="45.6498609" lon="11.4100308"><ele>171.39999999999998</ele><time>2026-04-17T16:29:47.027Z</time></trkpt><trkpt lat="45.6499392" lon="11.410067"><ele>170.2</ele><time>2026-04-17T16:29:49.027Z</time></trkpt><trkpt lat="45.6500612" lon="11.4100961"><ele>169.0</ele><time>2026-04-17T16:29:51.027Z</time></trkpt><trkpt lat="45.6502059" lon="11.410152"><ele>166.16666666666669</ele><time>2026-04-17T16:29:53.027Z</time></trkpt><trkpt lat="45.6502943" lon="11.410169"><ele>163.33333333333334</ele><time>2026-04-17T16:29:54.027Z</time></trkpt><trkpt lat="45.6503776" lon="11.4101903"><ele>160.5</ele><time>2026-04-17T16:29:55.027Z</time></trkpt><trkpt lat="45.6504484" lon="11.4102054"><ele>157.66666666666666</ele><time>2026-04-17T16:29:56.027Z</time></trkpt><trkpt lat="45.6505422" lon="11.4101703"><ele>154.83333333333331</ele><time>2026-04-17T16:29:57.026Z</time></trkpt><trkpt lat="45.6506048" lon="11.4101554"><ele>152.0</ele><time>2026-04-17T16:29:58.027Z</time></trkpt><trkpt lat="45.6506836" lon="11.4101475"><ele>152.0</ele><time>2026-04-17T16:29:59.026Z</time></trkpt><trkpt lat="45.6507631" lon="11.4100701"><ele>152.0</ele><time>2026-04-17T16:30:00.026Z</time></trkpt><trkpt lat="45.6508019" lon="11.4099897"><ele>152.0</ele><time>2026-04-17T16:30:01.027Z</time></trkpt><trkpt lat="45.650879" lon="11.4098455"><ele>152.0</ele><time>2026-04-17T16:30:03.026Z</time></trkpt><trkpt lat="45.6509072" lon="11.4097616"><ele>152.0</ele><time>2026-04-17T16:30:04.026Z</time></trkpt><trkpt lat="45.6509398" lon="11.4096713"><ele>152.0</ele><time>2026-04-17T16:30:05.026Z</time></trkpt><trkpt lat="45.6509898" lon="11.409574"><ele>153.2</ele><time>2026-04-17T16:30:06.027Z</time></trkpt><trkpt lat="45.6510442" lon="11.4094686"><ele>154.39999999999998</ele><time>2026-04-17T16:30:07.027Z</time></trkpt><trkpt lat="45.6510863" lon="11.4093587"><ele>155.60000000000002</ele><time>2026-04-17T16:30:08.027Z</time></trkpt><trkpt lat="45.6511335" lon="11.4092454"><ele>156.8</ele><time>2026-04-17T16:30:09.027Z</time></trkpt><trkpt lat="45.6511725" lon="11.4091306"><ele>158.0</ele><time>2026-04-17T16:30:10.026Z</time></trkpt><trkpt lat="45.6512442" lon="11.4090234"><ele>154.20000000000002</ele><time>2026-04-17T16:30:11.028Z</time></trkpt><trkpt lat="45.6513037" lon="11.4089291"><ele>150.4</ele><time>2026-04-17T16:30:12.026Z</time></trkpt><trkpt lat="45.6513889" lon="11.4088509"><ele>146.60000000000002</ele><time>2026-04-17T16:30:13.025Z</time></trkpt><trkpt lat="45.6514545" lon="11.4087382"><ele>142.8</ele><time>2026-04-17T16:30:14.027Z</time></trkpt><trkpt lat="45.6515283" lon="11.4086424"><ele>139.0</ele><time>2026-04-17T16:30:15.026Z</time></trkpt><trkpt lat="45.651595" lon="11.408536"><ele>139.0</ele><time>2026-04-17T16:30:16.027Z</time></trkpt><trkpt lat="45.6516622" lon="11.4084495"><ele>139.0</ele><time>2026-04-17T16:30:17.027Z</time></trkpt><trkpt lat="45.6517277" lon="11.4083834"><ele>139.0</ele><time>2026-04-17T16:30:18.027Z</time></trkpt><trkpt lat="45.6518208" lon="11.4083979"><ele>139.0</ele><time>2026-04-17T16:30:19.026Z</time></trkpt><trkpt lat="45.6518756" lon="11.4083045"><ele>139.0</ele><time>2026-04-17T16:30:20.026Z</time></trkpt><trkpt lat="45.6519446" lon="11.4082516"><ele>139.0</ele><time>2026-04-17T16:30:21.027Z</time></trkpt><trkpt lat="45.6520468" lon="11.4081331"><ele>136.6</ele><time>2026-04-17T16:30:22.025Z</time></trkpt><trkpt lat="45.652113" lon="11.4080124"><ele>134.2</ele><time>2026-04-17T16:30:23.027Z</time></trkpt><trkpt lat="45.6521816" lon="11.4079096"><ele>131.79999999999998</ele><time>2026-04-17T16:30:24.026Z</time></trkpt><trkpt lat="45.6522502" lon="11.4078271"><ele>129.4</ele><time>2026-04-17T16:30:25.027Z</time></trkpt><trkpt lat="45.6522989" lon="11.4077377"><ele>127.0</ele><time>2026-04-17T16:30:27.027Z</time></trkpt><trkpt lat="45.6523643" lon="11.4076736"><ele>127.0</ele><time>2026-04-17T16:30:30.027Z</time></trkpt><trkpt lat="45.6524334" lon="11.4076901"><ele>126.99999999999999</ele><time>2026-04-17T16:30:34.026Z</time></trkpt><trkpt lat="45.6524593" lon="11.4078619"><ele>126.99999999999999</ele><time>2026-04-17T16:30:36.026Z</time></trkpt><trkpt lat="45.6525115" lon="11.4080196"><ele>127.0</ele><time>2026-04-17T16:30:38.027Z</time></trkpt><trkpt lat="45.6525349" lon="11.4081226"><ele>127.0</ele><time>2026-04-17T16:30:39.026Z</time></trkpt><trkpt lat="45.6525634" lon="11.4082164"><ele>126.0</ele><time>2026-04-17T16:30:40.026Z</time></trkpt><trkpt lat="45.6526108" lon="11.408304"><ele>124.99999999999999</ele><time>2026-04-17T16:30:41.026Z</time></trkpt><trkpt lat="45.6526541" lon="11.4084021"><ele>123.99999999999999</ele><time>2026-04-17T16:30:42.026Z</time></trkpt><trkpt lat="45.6526832" lon="11.4085134"><ele>123.0</ele><time>2026-04-17T16:30:43.025Z</time></trkpt><trkpt lat="45.6527254" lon="11.4086793"><ele>122.0</ele><time>2026-04-17T16:30:45.026Z</time></trkpt><trkpt lat="45.6527787" lon="11.4087882"><ele>119.0</ele><time>2026-04-17T16:30:46.027Z</time></trkpt><trkpt lat="45.6528222" lon="11.4088647"><ele>115.99999999999999</ele><time>2026-04-17T16:30:47.027Z</time></trkpt><trkpt lat="45.6528621" lon="11.4089541"><ele>112.99999999999999</ele><time>2026-04-17T16:30:48.027Z</time></trkpt><trkpt lat="45.6528985" lon="11.4090632"><ele>110.0</ele><time>2026-04-17T16:30:50.026Z</time></trkpt><trkpt lat="45.6529419" lon="11.4091843"><ele>107.0</ele><time>2026-04-17T16:30:52.026Z</time></trkpt><trkpt lat="45.6529646" lon="11.4094093"><ele>107.0</ele><time>2026-04-17T16:30:54.027Z</time></trkpt><trkpt lat="45.652943" lon="11.4095749"><ele>106.99999999999999</ele><time>2026-04-17T16:30:56.027Z</time></trkpt><trkpt lat="45.6529152" lon="11.4097331"><ele>106.99999999999999</ele><time>2026-04-17T16:30:58.026Z</time></trkpt><trkpt lat="45.6528854" lon="11.4098659"><ele>107.0</ele><time>2026-04-17T16:31:00.026Z</time></trkpt><trkpt lat="45.6528866" lon="11.409965"><ele>107.0</ele><time>2026-04-17T16:31:01.027Z</time></trkpt><trkpt lat="45.6528539" lon="11.4100671"><ele>106.83333333333333</ele><time>2026-04-17T16:31:03.026Z</time></trkpt><trkpt lat="45.6528259" lon="11.4101523"><ele>106.66666666666666</ele><time>2026-04-17T16:31:05.025Z</time></trkpt><trkpt lat="45.6527737" lon="11.4102567"><ele>106.5</ele><time>2026-04-17T16:31:08.026Z</time></trkpt><trkpt lat="45.6527255" lon="11.410344"><ele>106.33333333333334</ele><time>2026-04-17T16:31:10.026Z</time></trkpt><trkpt lat="45.6526586" lon="11.4104454"><ele>106.16666666666667</ele><time>2026-04-17T16:31:12.025Z</time></trkpt><trkpt lat="45.6526036" lon="11.4105024"><ele>106.0</ele><time>2026-04-17T16:31:13.026Z</time></trkpt><trkpt lat="45.6525107" lon="11.4105648"><ele>105.8</ele><time>2026-04-17T16:31:15.027Z</time></trkpt><trkpt lat="45.6524495" lon="11.410612"><ele>105.6</ele><time>2026-04-17T16:31:17.026Z</time></trkpt><trkpt lat="45.6523005" lon="11.4106282"><ele>105.4</ele><time>2026-04-17T16:31:18.026Z</time></trkpt><trkpt lat="45.6522399" lon="11.410679"><ele>105.2</ele><time>2026-04-17T16:31:21.026Z</time></trkpt><trkpt lat="45.6521454" lon="11.410647"><ele>105.0</ele><time>2026-04-17T16:31:24.026Z</time></trkpt><trkpt lat="45.6520979" lon="11.4107486"><ele>105.0</ele><time>2026-04-17T16:31:26.027Z</time></trkpt><trkpt lat="45.6521202" lon="11.4108708"><ele>105.0</ele><time>2026-04-17T16:31:28.026Z</time></trkpt><trkpt lat="45.6521392" lon="11.4109636"><ele>105.0</ele><time>2026-04-17T16:31:31.027Z</time></trkpt><trkpt lat="45.6522078" lon="11.4112445"><ele>105.0</ele><time>2026-04-17T16:31:34.026Z</time></trkpt><trkpt lat="45.6522365" lon="11.4113481"><ele>105.0</ele><time>2026-04-17T16:31:35.027Z</time></trkpt><trkpt lat="45.6522648" lon="11.4114356"><ele>104.4</ele><time>2026-04-17T16:31:36.027Z</time></trkpt><trkpt lat="45.6523093" lon="11.411521"><ele>103.8</ele><time>2026-04-17T16:31:39.027Z</time></trkpt><trkpt lat="45.6523343" lon="11.4116348"><ele>103.19999999999999</ele><time>2026-04-17T16:31:42.027Z</time></trkpt><trkpt lat="45.652355" lon="11.4117556"><ele>102.6</ele><time>2026-04-17T16:31:44.027Z</time></trkpt><trkpt lat="45.6524045" lon="11.4118918"><ele>102.0</ele><time>2026-04-17T16:31:46.027Z</time></trkpt><trkpt lat="45.6524245" lon="11.41203"><ele>102.0</ele><time>2026-04-17T16:35:18.026Z</time></trkpt><trkpt lat="45.6523654" lon="11.4120762"><ele>102.0</ele><time>2026-04-17T16:35:29.026Z</time></trkpt><trkpt lat="45.6523" lon="11.4121217"><ele>102.0</ele><time>2026-04-17T16:35:32.027Z</time></trkpt><trkpt lat="45.6522432" lon="11.4121606"><ele>102.0</ele><time>2026-04-17T16:35:34.027Z</time></trkpt><trkpt lat="45.6521426" lon="11.4121942"><ele>102.0</ele><time>2026-04-17T16:35:36.026Z</time></trkpt><trkpt lat="45.6520219" lon="11.4122444"><ele>102.0</ele><time>2026-04-17T16:35:38.026Z</time></trkpt><trkpt lat="45.651927" lon="11.412243"><ele>101.8</ele><time>2026-04-17T16:35:40.027Z</time></trkpt><trkpt lat="45.6517992" lon="11.4122681"><ele>101.6</ele><time>2026-04-17T16:35:42.027Z</time></trkpt><trkpt lat="45.6517245" lon="11.4122913"><ele>101.39999999999999</ele><time>2026-04-17T16:35:44.027Z</time></trkpt><trkpt lat="45.6516159" lon="11.4123593"><ele>101.19999999999999</ele><time>2026-04-17T16:35:46.026Z</time></trkpt><trkpt lat="45.6515469" lon="11.4124155"><ele>101.0</ele><time>2026-04-17T16:35:48.027Z</time></trkpt><trkpt lat="45.6514749" lon="11.4124631"><ele>100.99999999999999</ele><time>2026-04-17T16:35:50.027Z</time></trkpt><trkpt lat="45.6514125" lon="11.4125083"><ele>101.0</ele><time>2026-04-17T16:35:52.027Z</time></trkpt><trkpt lat="45.6513362" lon="11.4125689"><ele>101.0</ele><time>2026-04-17T16:35:54.026Z</time></trkpt><trkpt lat="45.651256" lon="11.4126354"><ele>101.0</ele><time>2026-04-17T16:35:56.027Z</time></trkpt><trkpt lat="45.65119" lon="11.4126816"><ele>100.99999999999999</ele><time>2026-04-17T16:35:58.027Z</time></trkpt><trkpt lat="45.6511327" lon="11.4127522"><ele>101.0</ele><time>2026-04-17T16:36:00.026Z</time></trkpt><trkpt lat="45.6510689" lon="11.4128113"><ele>101.42857142857143</ele><time>2026-04-17T16:36:02.027Z</time></trkpt><trkpt lat="45.6509994" lon="11.4128483"><ele>101.85714285714286</ele><time>2026-04-17T16:36:04.026Z</time></trkpt><trkpt lat="45.6509322" lon="11.4128828"><ele>102.28571428571428</ele><time>2026-04-17T16:36:06.026Z</time></trkpt><trkpt lat="45.6508612" lon="11.4129338"><ele>102.71428571428572</ele><time>2026-04-17T16:36:08.026Z</time></trkpt><trkpt lat="45.6508116" lon="11.4129939"><ele>103.14285714285715</ele><time>2026-04-17T16:36:10.026Z</time></trkpt><trkpt lat="45.6507359" lon="11.4130497"><ele>103.57142857142857</ele><time>2026-04-17T16:36:13.027Z</time></trkpt><trkpt lat="45.6506749" lon="11.4130801"><ele>104.0</ele><time>2026-04-17T16:36:15.027Z</time></trkpt><trkpt lat="45.6505689" lon="11.4131493"><ele>104.0</ele><time>2026-04-17T16:36:17.025Z</time></trkpt><trkpt lat="45.6504896" lon="11.4131811"><ele>104.0</ele><time>2026-04-17T16:36:18.027Z</time></trkpt><trkpt lat="45.6504037" lon="11.4132114"><ele>104.0</ele><time>2026-04-17T16:36:19.026Z</time></trkpt><trkpt lat="45.6503143" lon="11.4132418"><ele>104.0</ele><time>2026-04-17T16:36:20.027Z</time></trkpt><trkpt lat="45.6502308" lon="11.4132774"><ele>104.0</ele><time>2026-04-17T16:36:21.025Z</time></trkpt><trkpt lat="45.6500965" lon="11.4133937"><ele>104.25</ele><time>2026-04-17T16:36:22.027Z</time></trkpt><trkpt lat="45.6499533" lon="11.413474"><ele>104.5</ele><time>2026-04-17T16:36:23.026Z</time></trkpt><trkpt lat="45.6498826" lon="11.4136124"><ele>104.75</ele><time>2026-04-17T16:36:25.027Z</time></trkpt><trkpt lat="45.6498065" lon="11.4137269"><ele>105.0</ele><time>2026-04-17T16:36:27.027Z</time></trkpt><trkpt lat="45.6497365" lon="11.4138668"><ele>105.0</ele><time>2026-04-17T16:36:29.027Z</time></trkpt><trkpt lat="45.6496492" lon="11.4139876"><ele>105.0</ele><time>2026-04-17T16:36:31.026Z</time></trkpt><trkpt lat="45.6495822" lon="11.4140656"><ele>105.0</ele><time>2026-04-17T16:36:32.025Z</time></trkpt><trkpt lat="45.6495689" lon="11.4141865"><ele>105.0</ele><time>2026-04-17T16:36:34.026Z</time></trkpt><trkpt lat="45.6495146" lon="11.414275"><ele>105.0</ele><time>2026-04-17T16:36:35.025Z</time></trkpt><trkpt lat="45.6495052" lon="11.4144042"><ele>105.0</ele><time>2026-04-17T16:36:37.026Z</time></trkpt><trkpt lat="45.6494638" lon="11.414538"><ele>105.0</ele><time>2026-04-17T16:36:39.027Z</time></trkpt><trkpt lat="45.6494406" lon="11.4146419"><ele>105.0</ele><time>2026-04-17T16:36:41.027Z</time></trkpt><trkpt lat="45.6494135" lon="11.4147471"><ele>105.0</ele><time>2026-04-17T16:36:43.027Z</time></trkpt><trkpt lat="45.649386" lon="11.4148778"><ele>105.0</ele><time>2026-04-17T16:36:45.026Z</time></trkpt><trkpt lat="45.6493578" lon="11.4149999"><ele>105.0</ele><time>2026-04-17T16:36:47.027Z</time></trkpt><trkpt lat="45.6493003" lon="11.415117"><ele>104.2</ele><time>2026-04-17T16:36:49.025Z</time></trkpt><trkpt lat="45.6492376" lon="11.4152088"><ele>103.4</ele><time>2026-04-17T16:36:51.025Z</time></trkpt><trkpt lat="45.6491568" lon="11.4153277"><ele>102.6</ele><time>2026-04-17T16:36:53.026Z</time></trkpt><trkpt lat="45.6490764" lon="11.4154417"><ele>101.8</ele><time>2026-04-17T16:36:55.025Z</time></trkpt><trkpt lat="45.6489879" lon="11.4155577"><ele>101.0</ele><time>2026-04-17T16:36:57.025Z</time></trkpt><trkpt lat="45.6489416" lon="11.4156231"><ele>100.99999999999999</ele><time>2026-04-17T16:36:58.027Z</time></trkpt><trkpt lat="45.6488954" lon="11.4156876"><ele>101.0</ele><time>2026-04-17T16:36:59.026Z</time></trkpt><trkpt lat="45.6488444" lon="11.415753"><ele>101.0</ele><time>2026-04-17T16:37:00.026Z</time></trkpt><trkpt lat="45.6487944" lon="11.4158187"><ele>101.0</ele><time>2026-04-17T16:37:01.027Z</time></trkpt><trkpt lat="45.6487214" lon="11.4159225"><ele>100.99999999999999</ele><time>2026-04-17T16:37:03.027Z</time></trkpt><trkpt lat="45.648642" lon="11.4160089"><ele>101.0</ele><time>2026-04-17T16:37:05.027Z</time></trkpt><trkpt lat="45.6485387" lon="11.4160818"><ele>107.66666666666666</ele><time>2026-04-17T16:37:07.026Z</time></trkpt><trkpt lat="45.6483257" lon="11.4161513"><ele>114.33333333333334</ele><time>2026-04-17T16:37:08.027Z</time></trkpt><trkpt lat="45.6482127" lon="11.4161802"><ele>121.0</ele><time>2026-04-17T16:37:10.026Z</time></trkpt><trkpt lat="45.6480855" lon="11.4162155"><ele>121.0</ele><time>2026-04-17T16:37:12.026Z</time></trkpt><trkpt lat="45.6480187" lon="11.416242"><ele>120.99999999999999</ele><time>2026-04-17T16:37:13.027Z</time></trkpt><trkpt lat="45.6479554" lon="11.4162697"><ele>121.0</ele><time>2026-04-17T16:37:14.026Z</time></trkpt><trkpt lat="45.6478872" lon="11.4163017"><ele>121.0</ele><time>2026-04-17T16:37:15.026Z</time></trkpt><trkpt lat="45.6478169" lon="11.4163341"><ele>120.99999999999999</ele><time>2026-04-17T16:37:16.025Z</time></trkpt><trkpt lat="45.6477474" lon="11.4163666"><ele>121.0</ele><time>2026-04-17T16:37:17.027Z</time></trkpt><trkpt lat="45.6476804" lon="11.4164033"><ele>121.0</ele><time>2026-04-17T16:37:18.026Z</time></trkpt><trkpt lat="45.6476179" lon="11.4164435"><ele>118.19999999999999</ele><time>2026-04-17T16:37:19.025Z</time></trkpt><trkpt lat="45.6475522" lon="11.4164807"><ele>115.39999999999999</ele><time>2026-04-17T16:37:20.027Z</time></trkpt><trkpt lat="45.6474219" lon="11.4165625"><ele>112.6</ele><time>2026-04-17T16:37:21.027Z</time></trkpt><trkpt lat="45.6473027" lon="11.4166809"><ele>109.8</ele><time>2026-04-17T16:37:22.027Z</time></trkpt><trkpt lat="45.6472255" lon="11.4167425"><ele>107.0</ele><time>2026-04-17T16:37:23.025Z</time></trkpt><trkpt lat="45.6471464" lon="11.4167859"><ele>106.99999999999999</ele><time>2026-04-17T16:37:24.027Z</time></trkpt><trkpt lat="45.6470989" lon="11.4168531"><ele>107.0</ele><time>2026-04-17T16:37:25.026Z</time></trkpt><trkpt lat="45.647049" lon="11.4169097"><ele>107.0</ele><time>2026-04-17T16:37:26.027Z</time></trkpt><trkpt lat="45.6469814" lon="11.4170562"><ele>107.0</ele><time>2026-04-17T16:37:28.027Z</time></trkpt><trkpt lat="45.6469301" lon="11.4171249"><ele>106.99999999999999</ele><time>2026-04-17T16:37:29.027Z</time></trkpt><trkpt lat="45.6468868" lon="11.4172143"><ele>107.0</ele><time>2026-04-17T16:37:30.026Z</time></trkpt><trkpt lat="45.6467788" lon="11.4173435"><ele>106.39999999999999</ele><time>2026-04-17T16:37:32.027Z</time></trkpt><trkpt lat="45.6467013" lon="11.4174812"><ele>105.79999999999998</ele><time>2026-04-17T16:37:34.027Z</time></trkpt><trkpt lat="45.6466508" lon="11.4175455"><ele>105.2</ele><time>2026-04-17T16:37:35.026Z</time></trkpt><trkpt lat="45.6465905" lon="11.4175931"><ele>104.6</ele><time>2026-04-17T16:37:36.027Z</time></trkpt><trkpt lat="45.6464545" lon="11.4176902"><ele>104.0</ele><time>2026-04-17T16:37:38.026Z</time></trkpt><trkpt lat="45.6463222" lon="11.4177747"><ele>103.99999999999999</ele><time>2026-04-17T16:37:40.026Z</time></trkpt><trkpt lat="45.6462512" lon="11.4178129"><ele>104.0</ele><time>2026-04-17T16:37:41.027Z</time></trkpt><trkpt lat="45.6461443" lon="11.4178658"><ele>104.0</ele><time>2026-04-17T16:37:42.026Z</time></trkpt><trkpt lat="45.6460843" lon="11.4179133"><ele>104.0</ele><time>2026-04-17T16:37:43.027Z</time></trkpt><trkpt lat="45.6460307" lon="11.4179657"><ele>103.99999999999999</ele><time>2026-04-17T16:37:44.027Z</time></trkpt><trkpt lat="45.6459722" lon="11.4180541"><ele>104.0</ele><time>2026-04-17T16:37:45.026Z</time></trkpt><trkpt lat="45.6459365" lon="11.4181871"><ele>103.80000000000001</ele><time>2026-04-17T16:37:46.027Z</time></trkpt><trkpt lat="45.6458737" lon="11.4182735"><ele>103.60000000000001</ele><time>2026-04-17T16:37:47.026Z</time></trkpt><trkpt lat="45.6458517" lon="11.4184235"><ele>103.4</ele><time>2026-04-17T16:37:48.027Z</time></trkpt><trkpt lat="45.6457857" lon="11.4185038"><ele>103.2</ele><time>2026-04-17T16:37:49.027Z</time></trkpt><trkpt lat="45.6457329" lon="11.4186597"><ele>103.0</ele><time>2026-04-17T16:37:51.026Z</time></trkpt><trkpt lat="45.6457023" lon="11.4187493"><ele>102.50000000000001</ele><time>2026-04-17T16:37:52.026Z</time></trkpt><trkpt lat="45.645664" lon="11.418857"><ele>102.0</ele><time>2026-04-17T16:37:53.027Z</time></trkpt><trkpt lat="45.6456378" lon="11.4189598"><ele>101.5</ele><time>2026-04-17T16:37:54.025Z</time></trkpt><trkpt lat="45.6455883" lon="11.4190903"><ele>101.0</ele><time>2026-04-17T16:37:55.027Z</time></trkpt><trkpt lat="45.6455464" lon="11.4191834"><ele>100.50000000000001</ele><time>2026-04-17T16:37:56.026Z</time></trkpt><trkpt lat="45.6455251" lon="11.4192777"><ele>100.0</ele><time>2026-04-17T16:37:57.027Z</time></trkpt><trkpt lat="45.6454672" lon="11.4193627"><ele>100.0</ele><time>2026-04-17T16:37:58.026Z</time></trkpt><trkpt lat="45.645365" lon="11.4195241"><ele>100.0</ele><time>2026-04-17T16:38:00.026Z</time></trkpt><trkpt lat="45.6452592" lon="11.4196808"><ele>100.0</ele><time>2026-04-17T16:38:02.027Z</time></trkpt><trkpt lat="45.6452262" lon="11.4197629"><ele>100.0</ele><time>2026-04-17T16:38:03.027Z</time></trkpt><trkpt lat="45.6450941" lon="11.4198315"><ele>101.6</ele><time>2026-04-17T16:38:05.027Z</time></trkpt><trkpt lat="45.6450158" lon="11.4199494"><ele>103.2</ele><time>2026-04-17T16:38:07.027Z</time></trkpt><trkpt lat="45.6449696" lon="11.4200155"><ele>104.80000000000001</ele><time>2026-04-17T16:38:08.027Z</time></trkpt><trkpt lat="45.6449216" lon="11.4200832"><ele>106.4</ele><time>2026-04-17T16:38:09.027Z</time></trkpt><trkpt lat="45.6448326" lon="11.4202198"><ele>108.0</ele><time>2026-04-17T16:38:12.027Z</time></trkpt><trkpt lat="45.6447679" lon="11.4203274"><ele>108.0</ele><time>2026-04-17T16:38:14.027Z</time></trkpt><trkpt lat="45.6446979" lon="11.4204092"><ele>108.00000000000001</ele><time>2026-04-17T16:38:16.027Z</time></trkpt><trkpt lat="45.6446242" lon="11.4205067"><ele>108.00000000000001</ele><time>2026-04-17T16:38:18.025Z</time></trkpt><trkpt lat="45.6445439" lon="11.4206004"><ele>108.0</ele><time>2026-04-17T16:38:20.027Z</time></trkpt><trkpt lat="45.6444869" lon="11.4206888"><ele>108.0</ele><time>2026-04-17T16:38:22.027Z</time></trkpt><trkpt lat="45.6443993" lon="11.4207971"><ele>108.5</ele><time>2026-04-17T16:38:24.027Z</time></trkpt><trkpt lat="45.644332" lon="11.4209046"><ele>109.0</ele><time>2026-04-17T16:38:26.026Z</time></trkpt><trkpt lat="45.6442605" lon="11.4209649"><ele>109.5</ele><time>2026-04-17T16:38:27.027Z</time></trkpt><trkpt lat="45.6441995" lon="11.4210146"><ele>110.0</ele><time>2026-04-17T16:38:28.027Z</time></trkpt><trkpt lat="45.6441351" lon="11.4210662"><ele>110.5</ele><time>2026-04-17T16:38:29.027Z</time></trkpt><trkpt lat="45.6440805" lon="11.4211263"><ele>111.0</ele><time>2026-04-17T16:38:30.026Z</time></trkpt><trkpt lat="45.6440286" lon="11.4211852"><ele>111.0</ele><time>2026-04-17T16:38:31.025Z</time></trkpt><trkpt lat="45.6439785" lon="11.42124"><ele>111.0</ele><time>2026-04-17T16:38:32.026Z</time></trkpt><trkpt lat="45.6439241" lon="11.4212906"><ele>111.0</ele><time>2026-04-17T16:38:33.026Z</time></trkpt><trkpt lat="45.6438651" lon="11.4213399"><ele>111.0</ele><time>2026-04-17T16:38:34.026Z</time></trkpt><trkpt lat="45.6438054" lon="11.4213863"><ele>111.0</ele><time>2026-04-17T16:38:35.027Z</time></trkpt><trkpt lat="45.643744" lon="11.4214318"><ele>111.0</ele><time>2026-04-17T16:38:36.027Z</time></trkpt><trkpt lat="45.6436841" lon="11.4214741"><ele>111.0</ele><time>2026-04-17T16:38:37.026Z</time></trkpt><trkpt lat="45.6436249" lon="11.4215125"><ele>109.83333333333333</ele><time>2026-04-17T16:38:38.026Z</time></trkpt><trkpt lat="45.6435627" lon="11.421549"><ele>108.66666666666666</ele><time>2026-04-17T16:38:39.026Z</time></trkpt><trkpt lat="45.6434861" lon="11.4215813"><ele>107.5</ele><time>2026-04-17T16:38:40.027Z</time></trkpt><trkpt lat="45.6434087" lon="11.421605"><ele>106.33333333333333</ele><time>2026-04-17T16:38:41.026Z</time></trkpt><trkpt lat="45.6433288" lon="11.4216236"><ele>105.16666666666666</ele><time>2026-04-17T16:38:42.027Z</time></trkpt><trkpt lat="45.6432427" lon="11.4216319"><ele>104.0</ele><time>2026-04-17T16:38:43.026Z</time></trkpt><trkpt lat="45.6429638" lon="11.4216247"><ele>104.0</ele><time>2026-04-17T16:38:44.027Z</time></trkpt><trkpt lat="45.6428426" lon="11.4216371"><ele>104.0</ele><time>2026-04-17T16:38:45.026Z</time></trkpt><trkpt lat="45.6427549" lon="11.4216343"><ele>104.0</ele><time>2026-04-17T16:38:46.027Z</time></trkpt><trkpt lat="45.642684" lon="11.4216245"><ele>104.0</ele><time>2026-04-17T16:38:47.025Z</time></trkpt><trkpt lat="45.6425269" lon="11.421648"><ele>104.0</ele><time>2026-04-17T16:38:49.027Z</time></trkpt><trkpt lat="45.6424151" lon="11.4216439"><ele>103.80000000000001</ele><time>2026-04-17T16:38:50.027Z</time></trkpt><trkpt lat="45.6423054" lon="11.4216388"><ele>103.60000000000001</ele><time>2026-04-17T16:38:51.027Z</time></trkpt><trkpt lat="45.6422204" lon="11.4216376"><ele>103.4</ele><time>2026-04-17T16:38:52.026Z</time></trkpt><trkpt lat="45.6421424" lon="11.4216556"><ele>103.2</ele><time>2026-04-17T16:38:53.025Z</time></trkpt><trkpt lat="45.6420198" lon="11.4217217"><ele>103.0</ele><time>2026-04-17T16:38:55.026Z</time></trkpt><trkpt lat="45.6419047" lon="11.4218008"><ele>103.0</ele><time>2026-04-17T16:38:57.026Z</time></trkpt><trkpt lat="45.6418584" lon="11.421871"><ele>103.0</ele><time>2026-04-17T16:38:58.027Z</time></trkpt><trkpt lat="45.6416597" lon="11.4219607"><ele>103.0</ele><time>2026-04-17T16:39:00.025Z</time></trkpt><trkpt lat="45.6415845" lon="11.4219555"><ele>103.0</ele><time>2026-04-17T16:39:01.027Z</time></trkpt><trkpt lat="45.6414579" lon="11.4219539"><ele>103.00000000000001</ele><time>2026-04-17T16:39:03.027Z</time></trkpt><trkpt lat="45.6413724" lon="11.4219682"><ele>103.0</ele><time>2026-04-17T16:39:05.027Z</time></trkpt><trkpt lat="45.641309" lon="11.4220489"><ele>103.0</ele><time>2026-04-17T16:39:07.026Z</time></trkpt><trkpt lat="45.6412489" lon="11.4220847"><ele>103.0</ele><time>2026-04-17T16:39:08.026Z</time></trkpt><trkpt lat="45.6411682" lon="11.4221311"><ele>103.00000000000001</ele><time>2026-04-17T16:39:10.027Z</time></trkpt><trkpt lat="45.6410915" lon="11.4222318"><ele>103.0</ele><time>2026-04-17T16:39:12.027Z</time></trkpt><trkpt lat="45.6410291" lon="11.4222756"><ele>101.0</ele><time>2026-04-17T16:39:13.026Z</time></trkpt><trkpt lat="45.6409683" lon="11.4223411"><ele>99.0</ele><time>2026-04-17T16:39:14.027Z</time></trkpt><trkpt lat="45.6408588" lon="11.4224542"><ele>97.0</ele><time>2026-04-17T16:39:16.027Z</time></trkpt><trkpt lat="45.6407705" lon="11.4225915"><ele>95.0</ele><time>2026-04-17T16:39:18.026Z</time></trkpt><trkpt lat="45.6407263" lon="11.4226561"><ele>93.0</ele><time>2026-04-17T16:39:19.025Z</time></trkpt><trkpt lat="45.6406375" lon="11.4227738"><ele>93.0</ele><time>2026-04-17T16:39:21.027Z</time></trkpt><trkpt lat="45.640508" lon="11.422899"><ele>93.0</ele><time>2026-04-17T16:39:23.027Z</time></trkpt><trkpt lat="45.6404146" lon="11.4230557"><ele>93.0</ele><time>2026-04-17T16:39:24.027Z</time></trkpt><trkpt lat="45.6403743" lon="11.4231712"><ele>93.0</ele><time>2026-04-17T16:39:25.027Z</time></trkpt><trkpt lat="45.640301" lon="11.4232527"><ele>93.0</ele><time>2026-04-17T16:39:27.026Z</time></trkpt><trkpt lat="45.6402271" lon="11.4233002"><ele>93.0</ele><time>2026-04-17T16:39:29.026Z</time></trkpt><trkpt lat="45.6401534" lon="11.4232055"><ele>93.0</ele><time>2026-04-17T16:39:31.027Z</time></trkpt><trkpt lat="45.6400943" lon="11.4230975"><ele>93.0</ele><time>2026-04-17T16:39:33.027Z</time></trkpt><trkpt lat="45.6400434" lon="11.422997"><ele>93.0</ele><time>2026-04-17T16:39:35.027Z</time></trkpt><trkpt lat="45.6400218" lon="11.4228686"><ele>93.16666666666667</ele><time>2026-04-17T16:39:37.027Z</time></trkpt><trkpt lat="45.6400044" lon="11.4227603"><ele>93.33333333333333</ele><time>2026-04-17T16:39:39.027Z</time></trkpt><trkpt lat="45.6399824" lon="11.4226626"><ele>93.5</ele><time>2026-04-17T16:39:41.026Z</time></trkpt><trkpt lat="45.6399758" lon="11.422526"><ele>93.66666666666666</ele><time>2026-04-17T16:39:44.026Z</time></trkpt><trkpt lat="45.6399769" lon="11.4224332"><ele>93.83333333333333</ele><time>2026-04-17T16:39:46.027Z</time></trkpt><trkpt lat="45.6399723" lon="11.4223201"><ele>94.0</ele><time>2026-04-17T16:39:49.027Z</time></trkpt><trkpt lat="45.6399586" lon="11.4222073"><ele>94.16666666666666</ele><time>2026-04-17T16:39:52.026Z</time></trkpt><trkpt lat="45.639942" lon="11.4220909"><ele>94.33333333333333</ele><time>2026-04-17T16:39:55.027Z</time></trkpt><trkpt lat="45.6399196" lon="11.4219887"><ele>94.5</ele><time>2026-04-17T16:39:57.025Z</time></trkpt><trkpt lat="45.6398968" lon="11.4218825"><ele>94.66666666666667</ele><time>2026-04-17T16:39:59.027Z</time></trkpt><trkpt lat="45.6398739" lon="11.4217981"><ele>94.83333333333334</ele><time>2026-04-17T16:40:01.027Z</time></trkpt><trkpt lat="45.6398267" lon="11.4216849"><ele>95.0</ele><time>2026-04-17T16:40:04.026Z</time></trkpt><trkpt lat="45.6397825" lon="11.4216056"><ele>95.0</ele><time>2026-04-17T16:40:06.027Z</time></trkpt><trkpt lat="45.6397185" lon="11.4215015"><ele>95.0</ele><time>2026-04-17T16:40:08.026Z</time></trkpt><trkpt lat="45.6396462" lon="11.4213829"><ele>95.0</ele><time>2026-04-17T16:40:10.027Z</time></trkpt><trkpt lat="45.6395767" lon="11.4212695"><ele>95.0</ele><time>2026-04-17T16:40:12.027Z</time></trkpt><trkpt lat="45.639537" lon="11.4211566"><ele>95.0</ele><time>2026-04-17T16:40:14.026Z</time></trkpt><trkpt lat="45.6395123" lon="11.4210617"><ele>95.14285714285714</ele><time>2026-04-17T16:40:16.027Z</time></trkpt><trkpt lat="45.6394822" lon="11.4209686"><ele>95.28571428571429</ele><time>2026-04-17T16:40:18.025Z</time></trkpt><trkpt lat="45.6394521" lon="11.420865"><ele>95.42857142857142</ele><time>2026-04-17T16:40:20.027Z</time></trkpt><trkpt lat="45.6394134" lon="11.4207597"><ele>95.57142857142857</ele><time>2026-04-17T16:40:22.027Z</time></trkpt><trkpt lat="45.6393819" lon="11.4206735"><ele>95.71428571428571</ele><time>2026-04-17T16:40:24.027Z</time></trkpt><trkpt lat="45.6393541" lon="11.4205916"><ele>95.85714285714285</ele><time>2026-04-17T16:40:26.026Z</time></trkpt><trkpt lat="45.6393206" lon="11.4204973"><ele>96.0</ele><time>2026-04-17T16:40:28.026Z</time></trkpt><trkpt lat="45.6392893" lon="11.4204127"><ele>97.0</ele><time>2026-04-17T16:40:30.026Z</time></trkpt><trkpt lat="45.6392368" lon="11.4203326"><ele>98.0</ele><time>2026-04-17T16:40:32.025Z</time></trkpt><trkpt lat="45.6391613" lon="11.4202733"><ele>99.0</ele><time>2026-04-17T16:40:34.027Z</time></trkpt><trkpt lat="45.639062" lon="11.4202348"><ele>100.0</ele><time>2026-04-17T16:40:36.027Z</time></trkpt><trkpt lat="45.6389904" lon="11.4202251"><ele>101.0</ele><time>2026-04-17T16:40:38.027Z</time></trkpt><trkpt lat="45.6389088" lon="11.4202151"><ele>102.0</ele><time>2026-04-17T16:40:41.026Z</time></trkpt><trkpt lat="45.6388367" lon="11.4201826"><ele>102.0</ele><time>2026-04-17T16:40:44.026Z</time></trkpt><trkpt lat="45.6387662" lon="11.420132"><ele>102.0</ele><time>2026-04-17T16:40:47.027Z</time></trkpt><trkpt lat="45.6386865" lon="11.4201107"><ele>102.0</ele><time>2026-04-17T16:40:50.026Z</time></trkpt><trkpt lat="45.6386084" lon="11.420122"><ele>102.0</ele><time>2026-04-17T16:40:53.027Z</time></trkpt><trkpt lat="45.6385441" lon="11.4201262"><ele>102.0</ele><time>2026-04-17T16:40:57.026Z</time></trkpt><trkpt lat="45.6384827" lon="11.4200686"><ele>102.0</ele><time>2026-04-17T16:41:03.027Z</time></trkpt><trkpt lat="45.6384284" lon="11.4200143"><ele>102.0</ele><time>2026-04-17T16:41:08.027Z</time></trkpt><trkpt lat="45.6383482" lon="11.4199895"><ele>102.57142857142857</ele><time>2026-04-17T16:41:13.026Z</time></trkpt><trkpt lat="45.6382779" lon="11.4199722"><ele>103.14285714285714</ele><time>2026-04-17T16:41:17.027Z</time></trkpt><trkpt lat="45.6382141" lon="11.4199369"><ele>103.71428571428572</ele><time>2026-04-17T16:41:21.027Z</time></trkpt><trkpt lat="45.6381455" lon="11.4198915"><ele>104.28571428571428</ele><time>2026-04-17T16:41:25.027Z</time></trkpt><trkpt lat="45.6380777" lon="11.4198441"><ele>104.85714285714285</ele><time>2026-04-17T16:41:30.027Z</time></trkpt><trkpt lat="45.638031" lon="11.4197734"><ele>105.42857142857143</ele><time>2026-04-17T16:41:35.027Z</time></trkpt><trkpt lat="45.6379791" lon="11.4197109"><ele>106.0</ele><time>2026-04-17T16:41:40.026Z</time></trkpt><trkpt lat="45.6379212" lon="11.4196598"><ele>107.57142857142858</ele><time>2026-04-17T16:41:49.027Z</time></trkpt><trkpt lat="45.6379342" lon="11.4195616"><ele>109.14285714285714</ele><time>2026-04-17T16:41:56.025Z</time></trkpt><trkpt lat="45.6379738" lon="11.4194715"><ele>110.71428571428572</ele><time>2026-04-17T16:42:01.026Z</time></trkpt><trkpt lat="45.6380013" lon="11.4193897"><ele>112.28571428571429</ele><time>2026-04-17T16:42:07.026Z</time></trkpt><trkpt lat="45.6380241" lon="11.4193044"><ele>113.85714285714286</ele><time>2026-04-17T16:42:13.026Z</time></trkpt><trkpt lat="45.6380236" lon="11.4192093"><ele>115.42857142857143</ele><time>2026-04-17T16:42:20.027Z</time></trkpt><trkpt lat="45.6380216" lon="11.4191155"><ele>117.0</ele><time>2026-04-17T16:42:27.026Z</time></trkpt><trkpt lat="45.6380083" lon="11.4190208"><ele>117.0</ele><time>2026-04-17T16:42:33.026Z</time></trkpt><trkpt lat="45.6380203" lon="11.4189226"><ele>117.00000000000001</ele><time>2026-04-17T16:42:39.026Z</time></trkpt><trkpt lat="45.638035" lon="11.4188203"><ele>117.0</ele><time>2026-04-17T16:42:46.027Z</time></trkpt><trkpt lat="45.6380004" lon="11.4187339"><ele>117.0</ele><time>2026-04-17T16:42:51.027Z</time></trkpt><trkpt lat="45.6379459" lon="11.4186827"><ele>117.00000000000001</ele><time>2026-04-17T16:42:55.026Z</time></trkpt><trkpt lat="45.6378792" lon="11.4186041"><ele>117.0</ele><time>2026-04-17T16:42:59.026Z</time></trkpt><trkpt lat="45.6378059" lon="11.4185708"><ele>117.0</ele><time>2026-04-17T16:43:02.026Z</time></trkpt><trkpt lat="45.6377209" lon="11.418519"><ele>118.8</ele><time>2026-04-17T16:43:05.025Z</time></trkpt><trkpt lat="45.637644" lon="11.4184846"><ele>120.6</ele><time>2026-04-17T16:43:07.026Z</time></trkpt><trkpt lat="45.637566" lon="11.4184658"><ele>122.39999999999999</ele><time>2026-04-17T16:43:09.026Z</time></trkpt><trkpt lat="45.6374809" lon="11.4184442"><ele>124.19999999999999</ele><time>2026-04-17T16:43:11.026Z</time></trkpt><trkpt lat="45.6373856" lon="11.418395"><ele>126.0</ele><time>2026-04-17T16:43:13.026Z</time></trkpt><trkpt lat="45.6372925" lon="11.4183226"><ele>126.0</ele><time>2026-04-17T16:43:15.026Z</time></trkpt><trkpt lat="45.6372248" lon="11.4182751"><ele>126.0</ele><time>2026-04-17T16:43:17.024Z</time></trkpt><trkpt lat="45.6371454" lon="11.4182441"><ele>126.0</ele><time>2026-04-17T16:43:20.026Z</time></trkpt><trkpt lat="45.6375017" lon="11.4183857"><ele>126.0</ele><time>2026-04-17T16:43:22.023Z</time></trkpt><trkpt lat="45.6374345" lon="11.4183685"><ele>126.0</ele><time>2026-04-17T16:43:28.025Z</time></trkpt><trkpt lat="45.637233" lon="11.4183167"><ele>126.0</ele><time>2026-04-17T16:43:29.027Z</time></trkpt><trkpt lat="45.6371647" lon="11.4183004"><ele>126.0</ele><time>2026-04-17T16:43:30.027Z</time></trkpt><trkpt lat="45.6369935" lon="11.418268"><ele>126.33333333333333</ele><time>2026-04-17T16:43:31.025Z</time></trkpt><trkpt lat="45.6368951" lon="11.4182436"><ele>126.66666666666666</ele><time>2026-04-17T16:43:33.026Z</time></trkpt><trkpt lat="45.636812" lon="11.4182214"><ele>127.0</ele><time>2026-04-17T16:43:36.026Z</time></trkpt><trkpt lat="45.6367479" lon="11.4182189"><ele>127.33333333333333</ele><time>2026-04-17T16:43:39.026Z</time></trkpt><trkpt lat="45.6366314" lon="11.4182382"><ele>127.66666666666666</ele><time>2026-04-17T16:43:43.026Z</time></trkpt><trkpt lat="45.636564" lon="11.4182488"><ele>128.0</ele><time>2026-04-17T16:43:46.026Z</time></trkpt><trkpt lat="45.636486" lon="11.4182659"><ele>127.99999999999999</ele><time>2026-04-17T16:43:49.025Z</time></trkpt><trkpt lat="45.6363988" lon="11.418283"><ele>128.0</ele><time>2026-04-17T16:43:52.025Z</time></trkpt><trkpt lat="45.6363249" lon="11.4182984"><ele>128.0</ele><time>2026-04-17T16:43:55.026Z</time></trkpt><trkpt lat="45.636249" lon="11.4183045"><ele>128.0</ele><time>2026-04-17T16:43:58.025Z</time></trkpt><trkpt lat="45.6361626" lon="11.4182962"><ele>127.99999999999999</ele><time>2026-04-17T16:44:01.025Z</time></trkpt><trkpt lat="45.6360978" lon="11.418296"><ele>128.0</ele><time>2026-04-17T16:44:04.026Z</time></trkpt><trkpt lat="45.6360275" lon="11.4182908"><ele>128.33333333333331</ele><time>2026-04-17T16:44:08.025Z</time></trkpt><trkpt lat="45.6359592" lon="11.4182807"><ele>128.66666666666666</ele><time>2026-04-17T16:44:11.024Z</time></trkpt><trkpt lat="45.6358758" lon="11.4182678"><ele>129.0</ele><time>2026-04-17T16:44:15.026Z</time></trkpt><trkpt lat="45.6357967" lon="11.4182642"><ele>129.33333333333334</ele><time>2026-04-17T16:44:18.026Z</time></trkpt><trkpt lat="45.6356978" lon="11.4182751"><ele>129.66666666666669</ele><time>2026-04-17T16:44:21.025Z</time></trkpt><trkpt lat="45.6356365" lon="11.4182415"><ele>130.0</ele><time>2026-04-17T16:44:24.026Z</time></trkpt><trkpt lat="45.6355652" lon="11.4181951"><ele>130.0</ele><time>2026-04-17T16:44:32.026Z</time></trkpt><trkpt lat="45.6354969" lon="11.4181414"><ele>130.0</ele><time>2026-04-17T16:44:37.026Z</time></trkpt><trkpt lat="45.6354314" lon="11.4180642"><ele>130.0</ele><time>2026-04-17T16:44:42.025Z</time></trkpt><trkpt lat="45.6353564" lon="11.4180008"><ele>130.0</ele><time>2026-04-17T16:44:45.026Z</time></trkpt><trkpt lat="45.6352882" lon="11.417979"><ele>130.0</ele><time>2026-04-17T16:44:48.026Z</time></trkpt><trkpt lat="45.6352289" lon="11.4179389"><ele>130.0</ele><time>2026-04-17T16:44:52.025Z</time></trkpt><trkpt lat="45.6351617" lon="11.4178975"><ele>131.14285714285717</ele><time>2026-04-17T16:44:56.026Z</time></trkpt><trkpt lat="45.6350947" lon="11.417831"><ele>132.28571428571428</ele><time>2026-04-17T16:45:00.026Z</time></trkpt><trkpt lat="45.6350472" lon="11.4177649"><ele>133.42857142857144</ele><time>2026-04-17T16:45:03.025Z</time></trkpt><trkpt lat="45.6349968" lon="11.4176861"><ele>134.57142857142858</ele><time>2026-04-17T16:45:06.025Z</time></trkpt><trkpt lat="45.6349569" lon="11.4176032"><ele>135.71428571428572</ele><time>2026-04-17T16:45:09.026Z</time></trkpt><trkpt lat="45.6349288" lon="11.4175135"><ele>136.85714285714286</ele><time>2026-04-17T16:45:13.025Z</time></trkpt><trkpt lat="45.6349106" lon="11.4174197"><ele>138.0</ele><time>2026-04-17T16:45:16.026Z</time></trkpt><trkpt lat="45.6348515" lon="11.4173325"><ele>138.0</ele><time>2026-04-17T16:45:20.025Z</time></trkpt><trkpt lat="45.6347745" lon="11.4173168"><ele>138.0</ele><time>2026-04-17T16:45:23.026Z</time></trkpt><trkpt lat="45.6346968" lon="11.4173269"><ele>138.0</ele><time>2026-04-17T16:45:26.026Z</time></trkpt><trkpt lat="45.6346311" lon="11.4173182"><ele>138.0</ele><time>2026-04-17T16:45:29.026Z</time></trkpt><trkpt lat="45.6345586" lon="11.4173528"><ele>138.0</ele><time>2026-04-17T16:45:34.026Z</time></trkpt><trkpt lat="45.634476" lon="11.417363"><ele>138.0</ele><time>2026-04-17T16:45:38.026Z</time></trkpt><trkpt lat="45.634397" lon="11.4173439"><ele>137.42857142857144</ele><time>2026-04-17T16:45:42.026Z</time></trkpt><trkpt lat="45.6343306" lon="11.417313"><ele>136.85714285714286</ele><time>2026-04-17T16:45:46.025Z</time></trkpt><trkpt lat="45.6342716" lon="11.4172618"><ele>136.28571428571428</ele><time>2026-04-17T16:45:50.025Z</time></trkpt><trkpt lat="45.6342667" lon="11.4171537"><ele>135.71428571428572</ele><time>2026-04-17T16:45:55.024Z</time></trkpt><trkpt lat="45.6342916" lon="11.4170539"><ele>135.14285714285714</ele><time>2026-04-17T16:46:01.026Z</time></trkpt><trkpt lat="45.6343021" lon="11.4169637"><ele>134.57142857142858</ele><time>2026-04-17T16:46:07.026Z</time></trkpt><trkpt lat="45.634287" lon="11.4168633"><ele>134.0</ele><time>2026-04-17T16:46:12.025Z</time></trkpt><trkpt lat="45.6342796" lon="11.4167639"><ele>135.42857142857144</ele><time>2026-04-17T16:46:17.025Z</time></trkpt><trkpt lat="45.6342829" lon="11.4166586"><ele>136.85714285714286</ele><time>2026-04-17T16:46:22.025Z</time></trkpt><trkpt lat="45.6342638" lon="11.4165715"><ele>138.28571428571428</ele><time>2026-04-17T16:46:26.026Z</time></trkpt><trkpt lat="45.6342488" lon="11.4164666"><ele>139.71428571428572</ele><time>2026-04-17T16:46:31.026Z</time></trkpt><trkpt lat="45.6342535" lon="11.4163755"><ele>141.14285714285714</ele><time>2026-04-17T16:46:36.025Z</time></trkpt><trkpt lat="45.6342901" lon="11.4162891"><ele>142.57142857142858</ele><time>2026-04-17T16:46:41.025Z</time></trkpt><trkpt lat="45.6342888" lon="11.4161886"><ele>144.0</ele><time>2026-04-17T16:46:46.025Z</time></trkpt><trkpt lat="45.6343161" lon="11.4161028"><ele>145.2857142857143</ele><time>2026-04-17T16:46:51.025Z</time></trkpt><trkpt lat="45.6343411" lon="11.416016"><ele>146.57142857142858</ele><time>2026-04-17T16:46:56.025Z</time></trkpt><trkpt lat="45.6343362" lon="11.4159207"><ele>147.85714285714286</ele><time>2026-04-17T16:47:00.026Z</time></trkpt><trkpt lat="45.6343493" lon="11.4158162"><ele>149.14285714285717</ele><time>2026-04-17T16:47:04.025Z</time></trkpt><trkpt lat="45.6343339" lon="11.4156993"><ele>150.42857142857144</ele><time>2026-04-17T16:47:08.024Z</time></trkpt><trkpt lat="45.6343572" lon="11.4155878"><ele>151.71428571428572</ele><time>2026-04-17T16:47:11.026Z</time></trkpt><trkpt lat="45.6343523" lon="11.4154971"><ele>153.0</ele><time>2026-04-17T16:47:14.025Z</time></trkpt><trkpt lat="45.6343799" lon="11.4154121"><ele>153.0</ele><time>2026-04-17T16:47:25.026Z</time></trkpt><trkpt lat="45.6343271" lon="11.4154917"><ele>153.0</ele><time>2026-04-17T16:47:27.044Z</time></trkpt><trkpt lat="45.6343371" lon="11.415401"><ele>153.0</ele><time>2026-04-17T16:47:31.026Z</time></trkpt><trkpt lat="45.6342833" lon="11.4153414"><ele>153.0</ele><time>2026-04-17T16:47:38.025Z</time></trkpt><trkpt lat="45.6342202" lon="11.4152692"><ele>153.0</ele><time>2026-04-17T16:48:28.043Z</time></trkpt></trkseg></trk></gpx>